<?xml version="1.0" encoding="UTF-8" standalone="no" ?>
<gpx xmlns="http://www.topografix.com/GPX/1/1" xmlns:xsi="http://www.w3.org/2001/XMLSchema-instance" xsi:schemaLocation="http://www.topografix.com/GPX/1/1 http://www.topografix.com/GPX/1/1/gpx.xsd" version="1.1" creator="VisuGPX - https://www.visugpx.com">
  <metadata>
    <name>Saint Philbert de Grand Lieu N°1</name>
    <desc><![CDATA[Circuit VTT permanent]]></desc>
  </metadata>
  <trk>
    <name><![CDATA[SaintPhilbertDeGrandLieuN°1 on GPSies.com]]></name>
    <trkseg>
      <trkpt lat="47.04179" lon="-1.64025">
        <ele>6</ele>
        <time>2011-12-27T20:29:38Z</time>
      </trkpt>
      <trkpt lat="47.04112" lon="-1.64003">
        <ele>4</ele>
        <time>2011-12-27T20:29:56Z</time>
      </trkpt>
      <trkpt lat="47.04024" lon="-1.63974">
        <ele>4</ele>
        <time>2011-12-27T20:30:20Z</time>
      </trkpt>
      <trkpt lat="47.03913" lon="-1.6394">
        <ele>1</ele>
        <time>2011-12-27T20:30:51Z</time>
      </trkpt>
      <trkpt lat="47.03851" lon="-1.63918">
        <ele>3</ele>
        <time>2011-12-27T20:31:08Z</time>
      </trkpt>
      <trkpt lat="47.03829" lon="-1.63912">
        <ele>3</ele>
        <time>2011-12-27T20:31:14Z</time>
      </trkpt>
      <trkpt lat="47.03794" lon="-1.63913">
        <ele>3</ele>
        <time>2011-12-27T20:31:23Z</time>
      </trkpt>
      <trkpt lat="47.03773" lon="-1.63904">
        <ele>3</ele>
        <time>2011-12-27T20:31:29Z</time>
      </trkpt>
      <trkpt lat="47.03718" lon="-1.63894">
        <ele>3</ele>
        <time>2011-12-27T20:31:43Z</time>
      </trkpt>
      <trkpt lat="47.03698" lon="-1.63902">
        <ele>5</ele>
        <time>2011-12-27T20:31:49Z</time>
      </trkpt>
      <trkpt lat="47.03661" lon="-1.63911">
        <ele>5</ele>
        <time>2011-12-27T20:31:59Z</time>
      </trkpt>
      <trkpt lat="47.03637" lon="-1.63906">
        <ele>5</ele>
        <time>2011-12-27T20:32:05Z</time>
      </trkpt>
      <trkpt lat="47.03541" lon="-1.63888">
        <ele>4</ele>
        <time>2011-12-27T20:32:31Z</time>
      </trkpt>
      <trkpt lat="47.03532" lon="-1.63882">
        <ele>4</ele>
        <time>2011-12-27T20:32:34Z</time>
      </trkpt>
      <trkpt lat="47.03525" lon="-1.6387">
        <ele>3</ele>
        <time>2011-12-27T20:32:37Z</time>
      </trkpt>
      <trkpt lat="47.03522" lon="-1.63851">
        <ele>3</ele>
        <time>2011-12-27T20:32:40Z</time>
      </trkpt>
      <trkpt lat="47.03517" lon="-1.63847">
        <ele>3</ele>
        <time>2011-12-27T20:32:42Z</time>
      </trkpt>
      <trkpt lat="47.03511" lon="-1.63842">
        <ele>3</ele>
        <time>2011-12-27T20:32:44Z</time>
      </trkpt>
      <trkpt lat="47.03499" lon="-1.6383">
        <ele>3</ele>
        <time>2011-12-27T20:32:47Z</time>
      </trkpt>
      <trkpt lat="47.0349" lon="-1.6381">
        <ele>3</ele>
        <time>2011-12-27T20:32:52Z</time>
      </trkpt>
      <trkpt lat="47.03483" lon="-1.63789">
        <ele>2</ele>
        <time>2011-12-27T20:32:56Z</time>
      </trkpt>
      <trkpt lat="47.03477" lon="-1.63769">
        <ele>2</ele>
        <time>2011-12-27T20:33:00Z</time>
      </trkpt>
      <trkpt lat="47.03475" lon="-1.63735">
        <ele>2</ele>
        <time>2011-12-27T20:33:06Z</time>
      </trkpt>
      <trkpt lat="47.03473" lon="-1.63701">
        <ele>2</ele>
        <time>2011-12-27T20:33:13Z</time>
      </trkpt>
      <trkpt lat="47.03475" lon="-1.63669">
        <ele>2</ele>
        <time>2011-12-27T20:33:18Z</time>
      </trkpt>
      <trkpt lat="47.03476" lon="-1.63641">
        <ele>2</ele>
        <time>2011-12-27T20:33:23Z</time>
      </trkpt>
      <trkpt lat="47.03476" lon="-1.63619">
        <ele>2</ele>
        <time>2011-12-27T20:33:28Z</time>
      </trkpt>
      <trkpt lat="47.03477" lon="-1.63533">
        <ele>5</ele>
        <time>2011-12-27T20:33:43Z</time>
      </trkpt>
      <trkpt lat="47.03478" lon="-1.63491">
        <ele>5</ele>
        <time>2011-12-27T20:33:51Z</time>
      </trkpt>
      <trkpt lat="47.03475" lon="-1.6345">
        <ele>6</ele>
        <time>2011-12-27T20:33:58Z</time>
      </trkpt>
      <trkpt lat="47.03465" lon="-1.63401">
        <ele>6</ele>
        <time>2011-12-27T20:34:08Z</time>
      </trkpt>
      <trkpt lat="47.0345" lon="-1.63335">
        <ele>6</ele>
        <time>2011-12-27T20:34:20Z</time>
      </trkpt>
      <trkpt lat="47.03402" lon="-1.63151">
        <ele>4</ele>
        <time>2011-12-27T20:34:56Z</time>
      </trkpt>
      <trkpt lat="47.03371" lon="-1.63028">
        <ele>1</ele>
        <time>2011-12-27T20:35:20Z</time>
      </trkpt>
      <trkpt lat="47.03313" lon="-1.62802">
        <ele>5</ele>
        <time>2011-12-27T20:36:04Z</time>
      </trkpt>
      <trkpt lat="47.03258" lon="-1.62575">
        <ele>2</ele>
        <time>2011-12-27T20:36:48Z</time>
      </trkpt>
      <trkpt lat="47.03247" lon="-1.62545">
        <ele>2</ele>
        <time>2011-12-27T20:36:54Z</time>
      </trkpt>
      <trkpt lat="47.03235" lon="-1.62493">
        <ele>3</ele>
        <time>2011-12-27T20:37:04Z</time>
      </trkpt>
      <trkpt lat="47.03227" lon="-1.62451">
        <ele>2</ele>
        <time>2011-12-27T20:37:12Z</time>
      </trkpt>
      <trkpt lat="47.03218" lon="-1.62433">
        <ele>2</ele>
        <time>2011-12-27T20:37:16Z</time>
      </trkpt>
      <trkpt lat="47.03205" lon="-1.62417">
        <ele>4</ele>
        <time>2011-12-27T20:37:20Z</time>
      </trkpt>
      <trkpt lat="47.03192" lon="-1.62398">
        <ele>4</ele>
        <time>2011-12-27T20:37:25Z</time>
      </trkpt>
      <trkpt lat="47.0317" lon="-1.62372">
        <ele>5</ele>
        <time>2011-12-27T20:37:33Z</time>
      </trkpt>
      <trkpt lat="47.03152" lon="-1.62354">
        <ele>5</ele>
        <time>2011-12-27T20:37:39Z</time>
      </trkpt>
      <trkpt lat="47.03132" lon="-1.62333">
        <ele>5</ele>
        <time>2011-12-27T20:37:45Z</time>
      </trkpt>
      <trkpt lat="47.03105" lon="-1.62305">
        <ele>6</ele>
        <time>2011-12-27T20:37:54Z</time>
      </trkpt>
      <trkpt lat="47.03102" lon="-1.62299">
        <ele>6</ele>
        <time>2011-12-27T20:37:55Z</time>
      </trkpt>
      <trkpt lat="47.0311" lon="-1.62263">
        <ele>5</ele>
        <time>2011-12-27T20:38:02Z</time>
      </trkpt>
      <trkpt lat="47.03118" lon="-1.62233">
        <ele>5</ele>
        <time>2011-12-27T20:38:08Z</time>
      </trkpt>
      <trkpt lat="47.03125" lon="-1.62202">
        <ele>5</ele>
        <time>2011-12-27T20:38:14Z</time>
      </trkpt>
      <trkpt lat="47.03128" lon="-1.62192">
        <ele>2</ele>
        <time>2011-12-27T20:38:16Z</time>
      </trkpt>
      <trkpt lat="47.0313" lon="-1.62174">
        <ele>2</ele>
        <time>2011-12-27T20:38:19Z</time>
      </trkpt>
      <trkpt lat="47.03132" lon="-1.62159">
        <ele>2</ele>
        <time>2011-12-27T20:38:22Z</time>
      </trkpt>
      <trkpt lat="47.03131" lon="-1.62147">
        <ele>2</ele>
        <time>2011-12-27T20:38:24Z</time>
      </trkpt>
      <trkpt lat="47.03133" lon="-1.62136">
        <ele>2</ele>
        <time>2011-12-27T20:38:26Z</time>
      </trkpt>
      <trkpt lat="47.03143" lon="-1.62097">
        <ele>3</ele>
        <time>2011-12-27T20:38:34Z</time>
      </trkpt>
      <trkpt lat="47.03153" lon="-1.62058">
        <ele>3</ele>
        <time>2011-12-27T20:38:41Z</time>
      </trkpt>
      <trkpt lat="47.03163" lon="-1.62019">
        <ele>4</ele>
        <time>2011-12-27T20:38:49Z</time>
      </trkpt>
      <trkpt lat="47.0317" lon="-1.61996">
        <ele>4</ele>
        <time>2011-12-27T20:38:54Z</time>
      </trkpt>
      <trkpt lat="47.03174" lon="-1.61975">
        <ele>4</ele>
        <time>2011-12-27T20:38:58Z</time>
      </trkpt>
      <trkpt lat="47.03176" lon="-1.61958">
        <ele>4</ele>
        <time>2011-12-27T20:39:01Z</time>
      </trkpt>
      <trkpt lat="47.03172" lon="-1.61949">
        <ele>4</ele>
        <time>2011-12-27T20:39:03Z</time>
      </trkpt>
      <trkpt lat="47.03165" lon="-1.61942">
        <ele>4</ele>
        <time>2011-12-27T20:39:05Z</time>
      </trkpt>
      <trkpt lat="47.0315" lon="-1.6193">
        <ele>4</ele>
        <time>2011-12-27T20:39:10Z</time>
      </trkpt>
      <trkpt lat="47.03135" lon="-1.61912">
        <ele>4</ele>
        <time>2011-12-27T20:39:15Z</time>
      </trkpt>
      <trkpt lat="47.03112" lon="-1.61886">
        <ele>4</ele>
        <time>2011-12-27T20:39:22Z</time>
      </trkpt>
      <trkpt lat="47.03081" lon="-1.61844">
        <ele>4</ele>
        <time>2011-12-27T20:39:34Z</time>
      </trkpt>
      <trkpt lat="47.03066" lon="-1.61816">
        <ele>4</ele>
        <time>2011-12-27T20:39:40Z</time>
      </trkpt>
      <trkpt lat="47.03053" lon="-1.6178">
        <ele>3</ele>
        <time>2011-12-27T20:39:48Z</time>
      </trkpt>
      <trkpt lat="47.0302" lon="-1.61679">
        <ele>5</ele>
        <time>2011-12-27T20:40:08Z</time>
      </trkpt>
      <trkpt lat="47.0296" lon="-1.61494">
        <ele>5</ele>
        <time>2011-12-27T20:40:45Z</time>
      </trkpt>
      <trkpt lat="47.02982" lon="-1.61445">
        <ele>6</ele>
        <time>2011-12-27T20:40:56Z</time>
      </trkpt>
      <trkpt lat="47.03025" lon="-1.6135">
        <ele>7</ele>
        <time>2011-12-27T20:41:17Z</time>
      </trkpt>
      <trkpt lat="47.03024" lon="-1.61345">
        <ele>7</ele>
        <time>2011-12-27T20:41:18Z</time>
      </trkpt>
      <trkpt lat="47.03015" lon="-1.61342">
        <ele>7</ele>
        <time>2011-12-27T20:41:20Z</time>
      </trkpt>
      <trkpt lat="47.03005" lon="-1.61333">
        <ele>7</ele>
        <time>2011-12-27T20:41:23Z</time>
      </trkpt>
      <trkpt lat="47.02967" lon="-1.61271">
        <ele>8</ele>
        <time>2011-12-27T20:41:39Z</time>
      </trkpt>
      <trkpt lat="47.02922" lon="-1.61232">
        <ele>7</ele>
        <time>2011-12-27T20:41:52Z</time>
      </trkpt>
      <trkpt lat="47.02889" lon="-1.6121">
        <ele>7</ele>
        <time>2011-12-27T20:42:02Z</time>
      </trkpt>
      <trkpt lat="47.02833" lon="-1.61166">
        <ele>7</ele>
        <time>2011-12-27T20:42:19Z</time>
      </trkpt>
      <trkpt lat="47.02805" lon="-1.61152">
        <ele>7</ele>
        <time>2011-12-27T20:42:27Z</time>
      </trkpt>
      <trkpt lat="47.02779" lon="-1.61141">
        <ele>7</ele>
        <time>2011-12-27T20:42:34Z</time>
      </trkpt>
      <trkpt lat="47.02758" lon="-1.61127">
        <ele>7</ele>
        <time>2011-12-27T20:42:40Z</time>
      </trkpt>
      <trkpt lat="47.02746" lon="-1.61113">
        <ele>7</ele>
        <time>2011-12-27T20:42:44Z</time>
      </trkpt>
      <trkpt lat="47.02729" lon="-1.61105">
        <ele>7</ele>
        <time>2011-12-27T20:42:49Z</time>
      </trkpt>
      <trkpt lat="47.02707" lon="-1.61099">
        <ele>8</ele>
        <time>2011-12-27T20:42:55Z</time>
      </trkpt>
      <trkpt lat="47.02684" lon="-1.61093">
        <ele>8</ele>
        <time>2011-12-27T20:43:01Z</time>
      </trkpt>
      <trkpt lat="47.02665" lon="-1.61092">
        <ele>8</ele>
        <time>2011-12-27T20:43:06Z</time>
      </trkpt>
      <trkpt lat="47.0264" lon="-1.61097">
        <ele>8</ele>
        <time>2011-12-27T20:43:13Z</time>
      </trkpt>
      <trkpt lat="47.02619" lon="-1.61097">
        <ele>11</ele>
        <time>2011-12-27T20:43:19Z</time>
      </trkpt>
      <trkpt lat="47.02608" lon="-1.61097">
        <ele>11</ele>
        <time>2011-12-27T20:43:22Z</time>
      </trkpt>
      <trkpt lat="47.02602" lon="-1.61094">
        <ele>11</ele>
        <time>2011-12-27T20:43:23Z</time>
      </trkpt>
      <trkpt lat="47.026" lon="-1.60985">
        <ele>13</ele>
        <time>2011-12-27T20:43:43Z</time>
      </trkpt>
      <trkpt lat="47.02594" lon="-1.60972">
        <ele>13</ele>
        <time>2011-12-27T20:43:46Z</time>
      </trkpt>
      <trkpt lat="47.02566" lon="-1.6095">
        <ele>13</ele>
        <time>2011-12-27T20:43:55Z</time>
      </trkpt>
      <trkpt lat="47.02553" lon="-1.60945">
        <ele>13</ele>
        <time>2011-12-27T20:43:58Z</time>
      </trkpt>
      <trkpt lat="47.02508" lon="-1.60934">
        <ele>15</ele>
        <time>2011-12-27T20:44:10Z</time>
      </trkpt>
      <trkpt lat="47.0248" lon="-1.60938">
        <ele>15</ele>
        <time>2011-12-27T20:44:18Z</time>
      </trkpt>
      <trkpt lat="47.02463" lon="-1.60943">
        <ele>15</ele>
        <time>2011-12-27T20:44:22Z</time>
      </trkpt>
      <trkpt lat="47.02445" lon="-1.60956">
        <ele>17</ele>
        <time>2011-12-27T20:44:28Z</time>
      </trkpt>
      <trkpt lat="47.02436" lon="-1.60964">
        <ele>17</ele>
        <time>2011-12-27T20:44:31Z</time>
      </trkpt>
      <trkpt lat="47.02357" lon="-1.61086">
        <ele>15</ele>
        <time>2011-12-27T20:45:01Z</time>
      </trkpt>
      <trkpt lat="47.02223" lon="-1.60758">
        <ele>16</ele>
        <time>2011-12-27T20:46:11Z</time>
      </trkpt>
      <trkpt lat="47.02182" lon="-1.6066">
        <ele>18</ele>
        <time>2011-12-27T20:46:32Z</time>
      </trkpt>
      <trkpt lat="47.02198" lon="-1.60636">
        <ele>18</ele>
        <time>2011-12-27T20:46:38Z</time>
      </trkpt>
      <trkpt lat="47.02213" lon="-1.60616">
        <ele>17</ele>
        <time>2011-12-27T20:46:43Z</time>
      </trkpt>
      <trkpt lat="47.02227" lon="-1.60594">
        <ele>17</ele>
        <time>2011-12-27T20:46:49Z</time>
      </trkpt>
      <trkpt lat="47.02238" lon="-1.60572">
        <ele>17</ele>
        <time>2011-12-27T20:46:54Z</time>
      </trkpt>
      <trkpt lat="47.02253" lon="-1.60537">
        <ele>17</ele>
        <time>2011-12-27T20:47:01Z</time>
      </trkpt>
      <trkpt lat="47.02264" lon="-1.60513">
        <ele>17</ele>
        <time>2011-12-27T20:47:06Z</time>
      </trkpt>
      <trkpt lat="47.02273" lon="-1.60481">
        <ele>17</ele>
        <time>2011-12-27T20:47:13Z</time>
      </trkpt>
      <trkpt lat="47.02283" lon="-1.60448">
        <ele>18</ele>
        <time>2011-12-27T20:47:19Z</time>
      </trkpt>
      <trkpt lat="47.02297" lon="-1.6039">
        <ele>16</ele>
        <time>2011-12-27T20:47:30Z</time>
      </trkpt>
      <trkpt lat="47.02304" lon="-1.6034">
        <ele>16</ele>
        <time>2011-12-27T20:47:40Z</time>
      </trkpt>
      <trkpt lat="47.02308" lon="-1.603">
        <ele>16</ele>
        <time>2011-12-27T20:47:47Z</time>
      </trkpt>
      <trkpt lat="47.02312" lon="-1.6026">
        <ele>16</ele>
        <time>2011-12-27T20:47:54Z</time>
      </trkpt>
      <trkpt lat="47.0232" lon="-1.60228">
        <ele>16</ele>
        <time>2011-12-27T20:48:01Z</time>
      </trkpt>
      <trkpt lat="47.02329" lon="-1.60202">
        <ele>14</ele>
        <time>2011-12-27T20:48:06Z</time>
      </trkpt>
      <trkpt lat="47.02335" lon="-1.60175">
        <ele>14</ele>
        <time>2011-12-27T20:48:11Z</time>
      </trkpt>
      <trkpt lat="47.02341" lon="-1.60139">
        <ele>14</ele>
        <time>2011-12-27T20:48:18Z</time>
      </trkpt>
      <trkpt lat="47.02347" lon="-1.60103">
        <ele>12</ele>
        <time>2011-12-27T20:48:25Z</time>
      </trkpt>
      <trkpt lat="47.02354" lon="-1.60084">
        <ele>12</ele>
        <time>2011-12-27T20:48:29Z</time>
      </trkpt>
      <trkpt lat="47.0236" lon="-1.60059">
        <ele>12</ele>
        <time>2011-12-27T20:48:33Z</time>
      </trkpt>
      <trkpt lat="47.02364" lon="-1.60036">
        <ele>10</ele>
        <time>2011-12-27T20:48:38Z</time>
      </trkpt>
      <trkpt lat="47.02367" lon="-1.60006">
        <ele>10</ele>
        <time>2011-12-27T20:48:43Z</time>
      </trkpt>
      <trkpt lat="47.02369" lon="-1.59977">
        <ele>10</ele>
        <time>2011-12-27T20:48:49Z</time>
      </trkpt>
      <trkpt lat="47.02374" lon="-1.59952">
        <ele>10</ele>
        <time>2011-12-27T20:48:53Z</time>
      </trkpt>
      <trkpt lat="47.02376" lon="-1.59934">
        <ele>10</ele>
        <time>2011-12-27T20:48:57Z</time>
      </trkpt>
      <trkpt lat="47.02383" lon="-1.59901">
        <ele>10</ele>
        <time>2011-12-27T20:49:03Z</time>
      </trkpt>
      <trkpt lat="47.02398" lon="-1.59892">
        <ele>10</ele>
        <time>2011-12-27T20:49:07Z</time>
      </trkpt>
      <trkpt lat="47.02422" lon="-1.5986">
        <ele>12</ele>
        <time>2011-12-27T20:49:16Z</time>
      </trkpt>
      <trkpt lat="47.02446" lon="-1.59831">
        <ele>12</ele>
        <time>2011-12-27T20:49:24Z</time>
      </trkpt>
      <trkpt lat="47.02477" lon="-1.59797">
        <ele>5</ele>
        <time>2011-12-27T20:49:34Z</time>
      </trkpt>
      <trkpt lat="47.02553" lon="-1.59751">
        <ele>6</ele>
        <time>2011-12-27T20:49:56Z</time>
      </trkpt>
      <trkpt lat="47.02553" lon="-1.59744">
        <ele>6</ele>
        <time>2011-12-27T20:49:58Z</time>
      </trkpt>
      <trkpt lat="47.0255" lon="-1.5974">
        <ele>6</ele>
        <time>2011-12-27T20:49:59Z</time>
      </trkpt>
      <trkpt lat="47.02542" lon="-1.59735">
        <ele>6</ele>
        <time>2011-12-27T20:50:01Z</time>
      </trkpt>
      <trkpt lat="47.02534" lon="-1.59729">
        <ele>4</ele>
        <time>2011-12-27T20:50:03Z</time>
      </trkpt>
      <trkpt lat="47.0253" lon="-1.59724">
        <ele>4</ele>
        <time>2011-12-27T20:50:05Z</time>
      </trkpt>
      <trkpt lat="47.02526" lon="-1.59719">
        <ele>4</ele>
        <time>2011-12-27T20:50:06Z</time>
      </trkpt>
      <trkpt lat="47.02516" lon="-1.59699">
        <ele>5</ele>
        <time>2011-12-27T20:50:11Z</time>
      </trkpt>
      <trkpt lat="47.02511" lon="-1.59689">
        <ele>5</ele>
        <time>2011-12-27T20:50:13Z</time>
      </trkpt>
      <trkpt lat="47.02505" lon="-1.59677">
        <ele>5</ele>
        <time>2011-12-27T20:50:16Z</time>
      </trkpt>
      <trkpt lat="47.02501" lon="-1.59671">
        <ele>5</ele>
        <time>2011-12-27T20:50:17Z</time>
      </trkpt>
      <trkpt lat="47.02494" lon="-1.59671">
        <ele>5</ele>
        <time>2011-12-27T20:50:19Z</time>
      </trkpt>
      <trkpt lat="47.02491" lon="-1.59664">
        <ele>5</ele>
        <time>2011-12-27T20:50:20Z</time>
      </trkpt>
      <trkpt lat="47.02497" lon="-1.59655">
        <ele>5</ele>
        <time>2011-12-27T20:50:23Z</time>
      </trkpt>
      <trkpt lat="47.02496" lon="-1.59644">
        <ele>5</ele>
        <time>2011-12-27T20:50:25Z</time>
      </trkpt>
      <trkpt lat="47.02495" lon="-1.59637">
        <ele>5</ele>
        <time>2011-12-27T20:50:26Z</time>
      </trkpt>
      <trkpt lat="47.0249" lon="-1.59619">
        <ele>5</ele>
        <time>2011-12-27T20:50:29Z</time>
      </trkpt>
      <trkpt lat="47.02486" lon="-1.59612">
        <ele>5</ele>
        <time>2011-12-27T20:50:31Z</time>
      </trkpt>
      <trkpt lat="47.02479" lon="-1.59605">
        <ele>5</ele>
        <time>2011-12-27T20:50:34Z</time>
      </trkpt>
      <trkpt lat="47.02475" lon="-1.59599">
        <ele>5</ele>
        <time>2011-12-27T20:50:35Z</time>
      </trkpt>
      <trkpt lat="47.02481" lon="-1.59586">
        <ele>5</ele>
        <time>2011-12-27T20:50:38Z</time>
      </trkpt>
      <trkpt lat="47.02483" lon="-1.59575">
        <ele>5</ele>
        <time>2011-12-27T20:50:40Z</time>
      </trkpt>
      <trkpt lat="47.02483" lon="-1.59566">
        <ele>5</ele>
        <time>2011-12-27T20:50:42Z</time>
      </trkpt>
      <trkpt lat="47.02486" lon="-1.59557">
        <ele>5</ele>
        <time>2011-12-27T20:50:43Z</time>
      </trkpt>
      <trkpt lat="47.02487" lon="-1.5955">
        <ele>5</ele>
        <time>2011-12-27T20:50:45Z</time>
      </trkpt>
      <trkpt lat="47.02496" lon="-1.59548">
        <ele>5</ele>
        <time>2011-12-27T20:50:47Z</time>
      </trkpt>
      <trkpt lat="47.02495" lon="-1.59555">
        <ele>5</ele>
        <time>2011-12-27T20:50:48Z</time>
      </trkpt>
      <trkpt lat="47.02492" lon="-1.59564">
        <ele>5</ele>
        <time>2011-12-27T20:50:50Z</time>
      </trkpt>
      <trkpt lat="47.02494" lon="-1.59576">
        <ele>5</ele>
        <time>2011-12-27T20:50:53Z</time>
      </trkpt>
      <trkpt lat="47.02498" lon="-1.59578">
        <ele>5</ele>
        <time>2011-12-27T20:50:54Z</time>
      </trkpt>
      <trkpt lat="47.02502" lon="-1.59572">
        <ele>5</ele>
        <time>2011-12-27T20:50:55Z</time>
      </trkpt>
      <trkpt lat="47.02506" lon="-1.59561">
        <ele>5</ele>
        <time>2011-12-27T20:50:58Z</time>
      </trkpt>
      <trkpt lat="47.02507" lon="-1.59547">
        <ele>5</ele>
        <time>2011-12-27T20:51:00Z</time>
      </trkpt>
      <trkpt lat="47.02508" lon="-1.59463">
        <ele>5</ele>
        <time>2011-12-27T20:51:16Z</time>
      </trkpt>
      <trkpt lat="47.02506" lon="-1.59418">
        <ele>6</ele>
        <time>2011-12-27T20:51:24Z</time>
      </trkpt>
      <trkpt lat="47.02503" lon="-1.59222">
        <ele>6</ele>
        <time>2011-12-27T20:51:59Z</time>
      </trkpt>
      <trkpt lat="47.02502" lon="-1.59143">
        <ele>7</ele>
        <time>2011-12-27T20:52:14Z</time>
      </trkpt>
      <trkpt lat="47.02494" lon="-1.59106">
        <ele>8</ele>
        <time>2011-12-27T20:52:21Z</time>
      </trkpt>
      <trkpt lat="47.02484" lon="-1.59086">
        <ele>8</ele>
        <time>2011-12-27T20:52:25Z</time>
      </trkpt>
      <trkpt lat="47.02479" lon="-1.59073">
        <ele>8</ele>
        <time>2011-12-27T20:52:28Z</time>
      </trkpt>
      <trkpt lat="47.0248" lon="-1.59064">
        <ele>8</ele>
        <time>2011-12-27T20:52:30Z</time>
      </trkpt>
      <trkpt lat="47.02486" lon="-1.59061">
        <ele>8</ele>
        <time>2011-12-27T20:52:31Z</time>
      </trkpt>
      <trkpt lat="47.02496" lon="-1.59064">
        <ele>8</ele>
        <time>2011-12-27T20:52:34Z</time>
      </trkpt>
      <trkpt lat="47.02512" lon="-1.59069">
        <ele>8</ele>
        <time>2011-12-27T20:52:38Z</time>
      </trkpt>
      <trkpt lat="47.02525" lon="-1.59076">
        <ele>8</ele>
        <time>2011-12-27T20:52:42Z</time>
      </trkpt>
      <trkpt lat="47.0253" lon="-1.59082">
        <ele>8</ele>
        <time>2011-12-27T20:52:44Z</time>
      </trkpt>
      <trkpt lat="47.02535" lon="-1.59073">
        <ele>8</ele>
        <time>2011-12-27T20:52:46Z</time>
      </trkpt>
      <trkpt lat="47.0254" lon="-1.59064">
        <ele>8</ele>
        <time>2011-12-27T20:52:48Z</time>
      </trkpt>
      <trkpt lat="47.02552" lon="-1.59054">
        <ele>10</ele>
        <time>2011-12-27T20:52:52Z</time>
      </trkpt>
      <trkpt lat="47.02562" lon="-1.59044">
        <ele>10</ele>
        <time>2011-12-27T20:52:55Z</time>
      </trkpt>
      <trkpt lat="47.02569" lon="-1.59035">
        <ele>11</ele>
        <time>2011-12-27T20:52:57Z</time>
      </trkpt>
      <trkpt lat="47.02575" lon="-1.59029">
        <ele>11</ele>
        <time>2011-12-27T20:52:59Z</time>
      </trkpt>
      <trkpt lat="47.0259" lon="-1.59021">
        <ele>11</ele>
        <time>2011-12-27T20:53:04Z</time>
      </trkpt>
      <trkpt lat="47.02602" lon="-1.59001">
        <ele>11</ele>
        <time>2011-12-27T20:53:08Z</time>
      </trkpt>
      <trkpt lat="47.02619" lon="-1.58993">
        <ele>11</ele>
        <time>2011-12-27T20:53:13Z</time>
      </trkpt>
      <trkpt lat="47.02635" lon="-1.58983">
        <ele>12</ele>
        <time>2011-12-27T20:53:18Z</time>
      </trkpt>
      <trkpt lat="47.0265" lon="-1.58976">
        <ele>12</ele>
        <time>2011-12-27T20:53:22Z</time>
      </trkpt>
      <trkpt lat="47.02665" lon="-1.58971">
        <ele>12</ele>
        <time>2011-12-27T20:53:26Z</time>
      </trkpt>
      <trkpt lat="47.02674" lon="-1.5897">
        <ele>12</ele>
        <time>2011-12-27T20:53:29Z</time>
      </trkpt>
      <trkpt lat="47.02696" lon="-1.58952">
        <ele>13</ele>
        <time>2011-12-27T20:53:35Z</time>
      </trkpt>
      <trkpt lat="47.02728" lon="-1.5892">
        <ele>14</ele>
        <time>2011-12-27T20:53:46Z</time>
      </trkpt>
      <trkpt lat="47.02766" lon="-1.58878">
        <ele>14</ele>
        <time>2011-12-27T20:53:58Z</time>
      </trkpt>
      <trkpt lat="47.02796" lon="-1.58841">
        <ele>15</ele>
        <time>2011-12-27T20:54:09Z</time>
      </trkpt>
      <trkpt lat="47.02863" lon="-1.58771">
        <ele>15</ele>
        <time>2011-12-27T20:54:31Z</time>
      </trkpt>
      <trkpt lat="47.02867" lon="-1.58755">
        <ele>15</ele>
        <time>2011-12-27T20:54:34Z</time>
      </trkpt>
      <trkpt lat="47.02873" lon="-1.58746">
        <ele>15</ele>
        <time>2011-12-27T20:54:36Z</time>
      </trkpt>
      <trkpt lat="47.02881" lon="-1.5874">
        <ele>14</ele>
        <time>2011-12-27T20:54:39Z</time>
      </trkpt>
      <trkpt lat="47.02894" lon="-1.58726">
        <ele>14</ele>
        <time>2011-12-27T20:54:43Z</time>
      </trkpt>
      <trkpt lat="47.02905" lon="-1.58721">
        <ele>14</ele>
        <time>2011-12-27T20:54:46Z</time>
      </trkpt>
      <trkpt lat="47.02916" lon="-1.58711">
        <ele>14</ele>
        <time>2011-12-27T20:54:49Z</time>
      </trkpt>
      <trkpt lat="47.02924" lon="-1.58707">
        <ele>13</ele>
        <time>2011-12-27T20:54:51Z</time>
      </trkpt>
      <trkpt lat="47.02934" lon="-1.58703">
        <ele>13</ele>
        <time>2011-12-27T20:54:54Z</time>
      </trkpt>
      <trkpt lat="47.02945" lon="-1.58699">
        <ele>13</ele>
        <time>2011-12-27T20:54:57Z</time>
      </trkpt>
      <trkpt lat="47.0296" lon="-1.58695">
        <ele>9</ele>
        <time>2011-12-27T20:55:01Z</time>
      </trkpt>
      <trkpt lat="47.02973" lon="-1.58691">
        <ele>9</ele>
        <time>2011-12-27T20:55:05Z</time>
      </trkpt>
      <trkpt lat="47.02985" lon="-1.58682">
        <ele>9</ele>
        <time>2011-12-27T20:55:08Z</time>
      </trkpt>
      <trkpt lat="47.02994" lon="-1.58675">
        <ele>9</ele>
        <time>2011-12-27T20:55:11Z</time>
      </trkpt>
      <trkpt lat="47.03003" lon="-1.5867">
        <ele>9</ele>
        <time>2011-12-27T20:55:14Z</time>
      </trkpt>
      <trkpt lat="47.03015" lon="-1.58662">
        <ele>9</ele>
        <time>2011-12-27T20:55:17Z</time>
      </trkpt>
      <trkpt lat="47.03026" lon="-1.58655">
        <ele>9</ele>
        <time>2011-12-27T20:55:20Z</time>
      </trkpt>
      <trkpt lat="47.03041" lon="-1.58646">
        <ele>9</ele>
        <time>2011-12-27T20:55:25Z</time>
      </trkpt>
      <trkpt lat="47.03056" lon="-1.58642">
        <ele>6</ele>
        <time>2011-12-27T20:55:29Z</time>
      </trkpt>
      <trkpt lat="47.03065" lon="-1.58637">
        <ele>6</ele>
        <time>2011-12-27T20:55:32Z</time>
      </trkpt>
      <trkpt lat="47.03073" lon="-1.58629">
        <ele>6</ele>
        <time>2011-12-27T20:55:34Z</time>
      </trkpt>
      <trkpt lat="47.03076" lon="-1.58623">
        <ele>6</ele>
        <time>2011-12-27T20:55:36Z</time>
      </trkpt>
      <trkpt lat="47.03082" lon="-1.58617">
        <ele>6</ele>
        <time>2011-12-27T20:55:37Z</time>
      </trkpt>
      <trkpt lat="47.03086" lon="-1.58612">
        <ele>6</ele>
        <time>2011-12-27T20:55:39Z</time>
      </trkpt>
      <trkpt lat="47.03091" lon="-1.58606">
        <ele>6</ele>
        <time>2011-12-27T20:55:41Z</time>
      </trkpt>
      <trkpt lat="47.03097" lon="-1.58602">
        <ele>6</ele>
        <time>2011-12-27T20:55:42Z</time>
      </trkpt>
      <trkpt lat="47.03092" lon="-1.58593">
        <ele>6</ele>
        <time>2011-12-27T20:55:44Z</time>
      </trkpt>
      <trkpt lat="47.03082" lon="-1.58579">
        <ele>6</ele>
        <time>2011-12-27T20:55:48Z</time>
      </trkpt>
      <trkpt lat="47.03069" lon="-1.58561">
        <ele>6</ele>
        <time>2011-12-27T20:55:53Z</time>
      </trkpt>
      <trkpt lat="47.03059" lon="-1.58545">
        <ele>6</ele>
        <time>2011-12-27T20:55:57Z</time>
      </trkpt>
      <trkpt lat="47.03045" lon="-1.58521">
        <ele>4</ele>
        <time>2011-12-27T20:56:03Z</time>
      </trkpt>
      <trkpt lat="47.03038" lon="-1.585">
        <ele>5</ele>
        <time>2011-12-27T20:56:07Z</time>
      </trkpt>
      <trkpt lat="47.03031" lon="-1.58469">
        <ele>5</ele>
        <time>2011-12-27T20:56:13Z</time>
      </trkpt>
      <trkpt lat="47.03024" lon="-1.58443">
        <ele>4</ele>
        <time>2011-12-27T20:56:18Z</time>
      </trkpt>
      <trkpt lat="47.03019" lon="-1.58425">
        <ele>4</ele>
        <time>2011-12-27T20:56:22Z</time>
      </trkpt>
      <trkpt lat="47.03014" lon="-1.5841">
        <ele>4</ele>
        <time>2011-12-27T20:56:25Z</time>
      </trkpt>
      <trkpt lat="47.03006" lon="-1.58397">
        <ele>4</ele>
        <time>2011-12-27T20:56:28Z</time>
      </trkpt>
      <trkpt lat="47.02996" lon="-1.5839">
        <ele>4</ele>
        <time>2011-12-27T20:56:31Z</time>
      </trkpt>
      <trkpt lat="47.02992" lon="-1.58381">
        <ele>4</ele>
        <time>2011-12-27T20:56:33Z</time>
      </trkpt>
      <trkpt lat="47.0299" lon="-1.58372">
        <ele>3</ele>
        <time>2011-12-27T20:56:34Z</time>
      </trkpt>
      <trkpt lat="47.02975" lon="-1.58336">
        <ele>3</ele>
        <time>2011-12-27T20:56:42Z</time>
      </trkpt>
      <trkpt lat="47.02934" lon="-1.58237">
        <ele>4</ele>
        <time>2011-12-27T20:57:03Z</time>
      </trkpt>
      <trkpt lat="47.02891" lon="-1.58137">
        <ele>5</ele>
        <time>2011-12-27T20:57:25Z</time>
      </trkpt>
      <trkpt lat="47.02881" lon="-1.58117">
        <ele>5</ele>
        <time>2011-12-27T20:57:29Z</time>
      </trkpt>
      <trkpt lat="47.02861" lon="-1.58089">
        <ele>3</ele>
        <time>2011-12-27T20:57:37Z</time>
      </trkpt>
      <trkpt lat="47.02842" lon="-1.58066">
        <ele>3</ele>
        <time>2011-12-27T20:57:43Z</time>
      </trkpt>
      <trkpt lat="47.02826" lon="-1.58039">
        <ele>4</ele>
        <time>2011-12-27T20:57:50Z</time>
      </trkpt>
      <trkpt lat="47.02811" lon="-1.58016">
        <ele>4</ele>
        <time>2011-12-27T20:57:55Z</time>
      </trkpt>
      <trkpt lat="47.02801" lon="-1.57999">
        <ele>4</ele>
        <time>2011-12-27T20:57:59Z</time>
      </trkpt>
      <trkpt lat="47.02776" lon="-1.57979">
        <ele>5</ele>
        <time>2011-12-27T20:58:07Z</time>
      </trkpt>
      <trkpt lat="47.02755" lon="-1.57963">
        <ele>5</ele>
        <time>2011-12-27T20:58:13Z</time>
      </trkpt>
      <trkpt lat="47.02745" lon="-1.57955">
        <ele>6</ele>
        <time>2011-12-27T20:58:16Z</time>
      </trkpt>
      <trkpt lat="47.02747" lon="-1.57931">
        <ele>6</ele>
        <time>2011-12-27T20:58:21Z</time>
      </trkpt>
      <trkpt lat="47.02752" lon="-1.57918">
        <ele>6</ele>
        <time>2011-12-27T20:58:24Z</time>
      </trkpt>
      <trkpt lat="47.02744" lon="-1.57908">
        <ele>6</ele>
        <time>2011-12-27T20:58:26Z</time>
      </trkpt>
      <trkpt lat="47.02735" lon="-1.57898">
        <ele>6</ele>
        <time>2011-12-27T20:58:29Z</time>
      </trkpt>
      <trkpt lat="47.02712" lon="-1.57865">
        <ele>5</ele>
        <time>2011-12-27T20:58:38Z</time>
      </trkpt>
      <trkpt lat="47.02693" lon="-1.57838">
        <ele>5</ele>
        <time>2011-12-27T20:58:45Z</time>
      </trkpt>
      <trkpt lat="47.02673" lon="-1.5782">
        <ele>5</ele>
        <time>2011-12-27T20:58:51Z</time>
      </trkpt>
      <trkpt lat="47.02657" lon="-1.57809">
        <ele>5</ele>
        <time>2011-12-27T20:58:56Z</time>
      </trkpt>
      <trkpt lat="47.02638" lon="-1.57799">
        <ele>5</ele>
        <time>2011-12-27T20:59:01Z</time>
      </trkpt>
      <trkpt lat="47.02624" lon="-1.57794">
        <ele>7</ele>
        <time>2011-12-27T20:59:05Z</time>
      </trkpt>
      <trkpt lat="47.02615" lon="-1.57793">
        <ele>7</ele>
        <time>2011-12-27T20:59:08Z</time>
      </trkpt>
      <trkpt lat="47.02605" lon="-1.57801">
        <ele>7</ele>
        <time>2011-12-27T20:59:10Z</time>
      </trkpt>
      <trkpt lat="47.02596" lon="-1.57818">
        <ele>7</ele>
        <time>2011-12-27T20:59:14Z</time>
      </trkpt>
      <trkpt lat="47.02589" lon="-1.57836">
        <ele>7</ele>
        <time>2011-12-27T20:59:18Z</time>
      </trkpt>
      <trkpt lat="47.02581" lon="-1.57854">
        <ele>7</ele>
        <time>2011-12-27T20:59:22Z</time>
      </trkpt>
      <trkpt lat="47.02577" lon="-1.57868">
        <ele>7</ele>
        <time>2011-12-27T20:59:25Z</time>
      </trkpt>
      <trkpt lat="47.0257" lon="-1.5789">
        <ele>7</ele>
        <time>2011-12-27T20:59:29Z</time>
      </trkpt>
      <trkpt lat="47.02564" lon="-1.5791">
        <ele>7</ele>
        <time>2011-12-27T20:59:33Z</time>
      </trkpt>
      <trkpt lat="47.02559" lon="-1.5793">
        <ele>7</ele>
        <time>2011-12-27T20:59:37Z</time>
      </trkpt>
      <trkpt lat="47.0255" lon="-1.5793">
        <ele>7</ele>
        <time>2011-12-27T20:59:40Z</time>
      </trkpt>
      <trkpt lat="47.0254" lon="-1.57922">
        <ele>8</ele>
        <time>2011-12-27T20:59:43Z</time>
      </trkpt>
      <trkpt lat="47.02531" lon="-1.57916">
        <ele>8</ele>
        <time>2011-12-27T20:59:45Z</time>
      </trkpt>
      <trkpt lat="47.02508" lon="-1.57985">
        <ele>12</ele>
        <time>2011-12-27T20:59:59Z</time>
      </trkpt>
      <trkpt lat="47.02494" lon="-1.5803">
        <ele>12</ele>
        <time>2011-12-27T21:00:08Z</time>
      </trkpt>
      <trkpt lat="47.02483" lon="-1.58065">
        <ele>14</ele>
        <time>2011-12-27T21:00:15Z</time>
      </trkpt>
      <trkpt lat="47.02469" lon="-1.58089">
        <ele>14</ele>
        <time>2011-12-27T21:00:21Z</time>
      </trkpt>
      <trkpt lat="47.02456" lon="-1.58111">
        <ele>15</ele>
        <time>2011-12-27T21:00:26Z</time>
      </trkpt>
      <trkpt lat="47.02436" lon="-1.58123">
        <ele>15</ele>
        <time>2011-12-27T21:00:32Z</time>
      </trkpt>
      <trkpt lat="47.02419" lon="-1.5813">
        <ele>18</ele>
        <time>2011-12-27T21:00:37Z</time>
      </trkpt>
      <trkpt lat="47.02401" lon="-1.58138">
        <ele>18</ele>
        <time>2011-12-27T21:00:42Z</time>
      </trkpt>
      <trkpt lat="47.02382" lon="-1.58147">
        <ele>18</ele>
        <time>2011-12-27T21:00:47Z</time>
      </trkpt>
      <trkpt lat="47.02367" lon="-1.58154">
        <ele>20</ele>
        <time>2011-12-27T21:00:51Z</time>
      </trkpt>
      <trkpt lat="47.02357" lon="-1.58148">
        <ele>20</ele>
        <time>2011-12-27T21:00:54Z</time>
      </trkpt>
      <trkpt lat="47.02345" lon="-1.58133">
        <ele>20</ele>
        <time>2011-12-27T21:00:58Z</time>
      </trkpt>
      <trkpt lat="47.02329" lon="-1.58126">
        <ele>20</ele>
        <time>2011-12-27T21:01:03Z</time>
      </trkpt>
      <trkpt lat="47.02315" lon="-1.58117">
        <ele>17</ele>
        <time>2011-12-27T21:01:07Z</time>
      </trkpt>
      <trkpt lat="47.02303" lon="-1.58109">
        <ele>17</ele>
        <time>2011-12-27T21:01:10Z</time>
      </trkpt>
      <trkpt lat="47.02281" lon="-1.58107">
        <ele>18</ele>
        <time>2011-12-27T21:01:16Z</time>
      </trkpt>
      <trkpt lat="47.02261" lon="-1.58103">
        <ele>18</ele>
        <time>2011-12-27T21:01:22Z</time>
      </trkpt>
      <trkpt lat="47.02228" lon="-1.58099">
        <ele>18</ele>
        <time>2011-12-27T21:01:31Z</time>
      </trkpt>
      <trkpt lat="47.02195" lon="-1.58079">
        <ele>18</ele>
        <time>2011-12-27T21:01:40Z</time>
      </trkpt>
      <trkpt lat="47.02161" lon="-1.58068">
        <ele>18</ele>
        <time>2011-12-27T21:01:49Z</time>
      </trkpt>
      <trkpt lat="47.02129" lon="-1.58054">
        <ele>18</ele>
        <time>2011-12-27T21:01:58Z</time>
      </trkpt>
      <trkpt lat="47.02085" lon="-1.5803">
        <ele>20</ele>
        <time>2011-12-27T21:02:11Z</time>
      </trkpt>
      <trkpt lat="47.02053" lon="-1.5801">
        <ele>20</ele>
        <time>2011-12-27T21:02:20Z</time>
      </trkpt>
      <trkpt lat="47.02015" lon="-1.57991">
        <ele>19</ele>
        <time>2011-12-27T21:02:31Z</time>
      </trkpt>
      <trkpt lat="47.01991" lon="-1.57972">
        <ele>19</ele>
        <time>2011-12-27T21:02:38Z</time>
      </trkpt>
      <trkpt lat="47.01971" lon="-1.57951">
        <ele>19</ele>
        <time>2011-12-27T21:02:45Z</time>
      </trkpt>
      <trkpt lat="47.01952" lon="-1.57931">
        <ele>17</ele>
        <time>2011-12-27T21:02:51Z</time>
      </trkpt>
      <trkpt lat="47.0193" lon="-1.57907">
        <ele>17</ele>
        <time>2011-12-27T21:02:58Z</time>
      </trkpt>
      <trkpt lat="47.0191" lon="-1.57887">
        <ele>17</ele>
        <time>2011-12-27T21:03:05Z</time>
      </trkpt>
      <trkpt lat="47.019" lon="-1.57875">
        <ele>15</ele>
        <time>2011-12-27T21:03:08Z</time>
      </trkpt>
      <trkpt lat="47.01886" lon="-1.57865">
        <ele>15</ele>
        <time>2011-12-27T21:03:12Z</time>
      </trkpt>
      <trkpt lat="47.01871" lon="-1.57838">
        <ele>16</ele>
        <time>2011-12-27T21:03:19Z</time>
      </trkpt>
      <trkpt lat="47.01854" lon="-1.57808">
        <ele>16</ele>
        <time>2011-12-27T21:03:26Z</time>
      </trkpt>
      <trkpt lat="47.0183" lon="-1.57763">
        <ele>13</ele>
        <time>2011-12-27T21:03:36Z</time>
      </trkpt>
      <trkpt lat="47.01809" lon="-1.57724">
        <ele>13</ele>
        <time>2011-12-27T21:03:45Z</time>
      </trkpt>
      <trkpt lat="47.01793" lon="-1.57699">
        <ele>10</ele>
        <time>2011-12-27T21:03:51Z</time>
      </trkpt>
      <trkpt lat="47.01779" lon="-1.57669">
        <ele>15</ele>
        <time>2011-12-27T21:03:58Z</time>
      </trkpt>
      <trkpt lat="47.01763" lon="-1.5764">
        <ele>15</ele>
        <time>2011-12-27T21:04:05Z</time>
      </trkpt>
      <trkpt lat="47.0175" lon="-1.57601">
        <ele>13</ele>
        <time>2011-12-27T21:04:13Z</time>
      </trkpt>
      <trkpt lat="47.01737" lon="-1.57569">
        <ele>13</ele>
        <time>2011-12-27T21:04:20Z</time>
      </trkpt>
      <trkpt lat="47.01731" lon="-1.57543">
        <ele>13</ele>
        <time>2011-12-27T21:04:24Z</time>
      </trkpt>
      <trkpt lat="47.01727" lon="-1.57534">
        <ele>12</ele>
        <time>2011-12-27T21:04:27Z</time>
      </trkpt>
      <trkpt lat="47.01697" lon="-1.57573">
        <ele>20</ele>
        <time>2011-12-27T21:04:37Z</time>
      </trkpt>
      <trkpt lat="47.01679" lon="-1.57595">
        <ele>20</ele>
        <time>2011-12-27T21:04:43Z</time>
      </trkpt>
      <trkpt lat="47.01668" lon="-1.57611">
        <ele>20</ele>
        <time>2011-12-27T21:04:48Z</time>
      </trkpt>
      <trkpt lat="47.01652" lon="-1.57654">
        <ele>20</ele>
        <time>2011-12-27T21:04:56Z</time>
      </trkpt>
      <trkpt lat="47.01638" lon="-1.57691">
        <ele>20</ele>
        <time>2011-12-27T21:05:04Z</time>
      </trkpt>
      <trkpt lat="47.01626" lon="-1.57725">
        <ele>21</ele>
        <time>2011-12-27T21:05:11Z</time>
      </trkpt>
      <trkpt lat="47.01602" lon="-1.57789">
        <ele>21</ele>
        <time>2011-12-27T21:05:25Z</time>
      </trkpt>
      <trkpt lat="47.01589" lon="-1.57825">
        <ele>21</ele>
        <time>2011-12-27T21:05:32Z</time>
      </trkpt>
      <trkpt lat="47.01573" lon="-1.57873">
        <ele>21</ele>
        <time>2011-12-27T21:05:42Z</time>
      </trkpt>
      <trkpt lat="47.01559" lon="-1.57911">
        <ele>20</ele>
        <time>2011-12-27T21:05:50Z</time>
      </trkpt>
      <trkpt lat="47.01521" lon="-1.58019">
        <ele>21</ele>
        <time>2011-12-27T21:06:11Z</time>
      </trkpt>
      <trkpt lat="47.01512" lon="-1.58021">
        <ele>21</ele>
        <time>2011-12-27T21:06:14Z</time>
      </trkpt>
      <trkpt lat="47.01494" lon="-1.58001">
        <ele>21</ele>
        <time>2011-12-27T21:06:20Z</time>
      </trkpt>
      <trkpt lat="47.01332" lon="-1.57802">
        <ele>23</ele>
        <time>2011-12-27T21:07:16Z</time>
      </trkpt>
      <trkpt lat="47.01312" lon="-1.57772">
        <ele>23</ele>
        <time>2011-12-27T21:07:24Z</time>
      </trkpt>
      <trkpt lat="47.01262" lon="-1.57709">
        <ele>24</ele>
        <time>2011-12-27T21:07:42Z</time>
      </trkpt>
      <trkpt lat="47.01113" lon="-1.57606">
        <ele>25</ele>
        <time>2011-12-27T21:08:26Z</time>
      </trkpt>
      <trkpt lat="47.01088" lon="-1.57637">
        <ele>24</ele>
        <time>2011-12-27T21:08:34Z</time>
      </trkpt>
      <trkpt lat="47.01034" lon="-1.57684">
        <ele>25</ele>
        <time>2011-12-27T21:08:51Z</time>
      </trkpt>
      <trkpt lat="47.00993" lon="-1.57713">
        <ele>25</ele>
        <time>2011-12-27T21:09:03Z</time>
      </trkpt>
      <trkpt lat="47.00943" lon="-1.57744">
        <ele>24</ele>
        <time>2011-12-27T21:09:18Z</time>
      </trkpt>
      <trkpt lat="47.0091" lon="-1.57765">
        <ele>24</ele>
        <time>2011-12-27T21:09:27Z</time>
      </trkpt>
      <trkpt lat="47.00817" lon="-1.57846">
        <ele>23</ele>
        <time>2011-12-27T21:09:56Z</time>
      </trkpt>
      <trkpt lat="47.00791" lon="-1.57882">
        <ele>23</ele>
        <time>2011-12-27T21:10:06Z</time>
      </trkpt>
      <trkpt lat="47.00758" lon="-1.57935">
        <ele>23</ele>
        <time>2011-12-27T21:10:19Z</time>
      </trkpt>
      <trkpt lat="47.00728" lon="-1.57978">
        <ele>21</ele>
        <time>2011-12-27T21:10:30Z</time>
      </trkpt>
      <trkpt lat="47.00711" lon="-1.58001">
        <ele>21</ele>
        <time>2011-12-27T21:10:36Z</time>
      </trkpt>
      <trkpt lat="47.0071" lon="-1.58012">
        <ele>21</ele>
        <time>2011-12-27T21:10:38Z</time>
      </trkpt>
      <trkpt lat="47.00715" lon="-1.58022">
        <ele>21</ele>
        <time>2011-12-27T21:10:40Z</time>
      </trkpt>
      <trkpt lat="47.00717" lon="-1.5803">
        <ele>21</ele>
        <time>2011-12-27T21:10:42Z</time>
      </trkpt>
      <trkpt lat="47.00652" lon="-1.58097">
        <ele>22</ele>
        <time>2011-12-27T21:11:03Z</time>
      </trkpt>
      <trkpt lat="47.00645" lon="-1.58115">
        <ele>22</ele>
        <time>2011-12-27T21:11:07Z</time>
      </trkpt>
      <trkpt lat="47.00643" lon="-1.58151">
        <ele>21</ele>
        <time>2011-12-27T21:11:14Z</time>
      </trkpt>
      <trkpt lat="47.0064" lon="-1.5818">
        <ele>21</ele>
        <time>2011-12-27T21:11:19Z</time>
      </trkpt>
      <trkpt lat="47.00638" lon="-1.58202">
        <ele>21</ele>
        <time>2011-12-27T21:11:23Z</time>
      </trkpt>
      <trkpt lat="47.00636" lon="-1.58227">
        <ele>21</ele>
        <time>2011-12-27T21:11:28Z</time>
      </trkpt>
      <trkpt lat="47.00634" lon="-1.58265">
        <ele>21</ele>
        <time>2011-12-27T21:11:35Z</time>
      </trkpt>
      <trkpt lat="47.00636" lon="-1.58297">
        <ele>21</ele>
        <time>2011-12-27T21:11:40Z</time>
      </trkpt>
      <trkpt lat="47.00638" lon="-1.58331">
        <ele>21</ele>
        <time>2011-12-27T21:11:47Z</time>
      </trkpt>
      <trkpt lat="47.0064" lon="-1.58352">
        <ele>21</ele>
        <time>2011-12-27T21:11:51Z</time>
      </trkpt>
      <trkpt lat="47.00642" lon="-1.58367">
        <ele>21</ele>
        <time>2011-12-27T21:11:53Z</time>
      </trkpt>
      <trkpt lat="47.00643" lon="-1.58383">
        <ele>23</ele>
        <time>2011-12-27T21:11:56Z</time>
      </trkpt>
      <trkpt lat="47.00599" lon="-1.58403">
        <ele>25</ele>
        <time>2011-12-27T21:12:08Z</time>
      </trkpt>
      <trkpt lat="47.006" lon="-1.58414">
        <ele>25</ele>
        <time>2011-12-27T21:12:11Z</time>
      </trkpt>
      <trkpt lat="47.00599" lon="-1.58434">
        <ele>25</ele>
        <time>2011-12-27T21:12:14Z</time>
      </trkpt>
      <trkpt lat="47.00599" lon="-1.58447">
        <ele>25</ele>
        <time>2011-12-27T21:12:17Z</time>
      </trkpt>
      <trkpt lat="47.00608" lon="-1.58471">
        <ele>24</ele>
        <time>2011-12-27T21:12:22Z</time>
      </trkpt>
      <trkpt lat="47.00614" lon="-1.58485">
        <ele>24</ele>
        <time>2011-12-27T21:12:25Z</time>
      </trkpt>
      <trkpt lat="47.00617" lon="-1.58511">
        <ele>24</ele>
        <time>2011-12-27T21:12:29Z</time>
      </trkpt>
      <trkpt lat="47.00618" lon="-1.58545">
        <ele>23</ele>
        <time>2011-12-27T21:12:35Z</time>
      </trkpt>
      <trkpt lat="47.00619" lon="-1.58596">
        <ele>23</ele>
        <time>2011-12-27T21:12:45Z</time>
      </trkpt>
      <trkpt lat="47.00618" lon="-1.58628">
        <ele>20</ele>
        <time>2011-12-27T21:12:51Z</time>
      </trkpt>
      <trkpt lat="47.00616" lon="-1.58662">
        <ele>20</ele>
        <time>2011-12-27T21:12:57Z</time>
      </trkpt>
      <trkpt lat="47.00613" lon="-1.5869">
        <ele>20</ele>
        <time>2011-12-27T21:13:02Z</time>
      </trkpt>
      <trkpt lat="47.00608" lon="-1.58715">
        <ele>20</ele>
        <time>2011-12-27T21:13:07Z</time>
      </trkpt>
      <trkpt lat="47.00601" lon="-1.58738">
        <ele>20</ele>
        <time>2011-12-27T21:13:11Z</time>
      </trkpt>
      <trkpt lat="47.00598" lon="-1.58762">
        <ele>20</ele>
        <time>2011-12-27T21:13:16Z</time>
      </trkpt>
      <trkpt lat="47.00593" lon="-1.58785">
        <ele>20</ele>
        <time>2011-12-27T21:13:20Z</time>
      </trkpt>
      <trkpt lat="47.00589" lon="-1.58806">
        <ele>21</ele>
        <time>2011-12-27T21:13:24Z</time>
      </trkpt>
      <trkpt lat="47.00585" lon="-1.58836">
        <ele>21</ele>
        <time>2011-12-27T21:13:30Z</time>
      </trkpt>
      <trkpt lat="47.0058" lon="-1.58857">
        <ele>21</ele>
        <time>2011-12-27T21:13:34Z</time>
      </trkpt>
      <trkpt lat="47.00576" lon="-1.58875">
        <ele>22</ele>
        <time>2011-12-27T21:13:37Z</time>
      </trkpt>
      <trkpt lat="47.00574" lon="-1.58895">
        <ele>22</ele>
        <time>2011-12-27T21:13:41Z</time>
      </trkpt>
      <trkpt lat="47.00564" lon="-1.58894">
        <ele>22</ele>
        <time>2011-12-27T21:13:43Z</time>
      </trkpt>
      <trkpt lat="47.00551" lon="-1.58892">
        <ele>22</ele>
        <time>2011-12-27T21:13:47Z</time>
      </trkpt>
      <trkpt lat="47.00537" lon="-1.58886">
        <ele>19</ele>
        <time>2011-12-27T21:13:51Z</time>
      </trkpt>
      <trkpt lat="47.00526" lon="-1.58877">
        <ele>19</ele>
        <time>2011-12-27T21:13:54Z</time>
      </trkpt>
      <trkpt lat="47.00513" lon="-1.58862">
        <ele>20</ele>
        <time>2011-12-27T21:13:59Z</time>
      </trkpt>
      <trkpt lat="47.00505" lon="-1.5885">
        <ele>20</ele>
        <time>2011-12-27T21:14:02Z</time>
      </trkpt>
      <trkpt lat="47.00495" lon="-1.58833">
        <ele>20</ele>
        <time>2011-12-27T21:14:06Z</time>
      </trkpt>
      <trkpt lat="47.00486" lon="-1.58815">
        <ele>20</ele>
        <time>2011-12-27T21:14:10Z</time>
      </trkpt>
      <trkpt lat="47.00487" lon="-1.58805">
        <ele>20</ele>
        <time>2011-12-27T21:14:11Z</time>
      </trkpt>
      <trkpt lat="47.00492" lon="-1.58796">
        <ele>20</ele>
        <time>2011-12-27T21:14:14Z</time>
      </trkpt>
      <trkpt lat="47.0049" lon="-1.58783">
        <ele>20</ele>
        <time>2011-12-27T21:14:16Z</time>
      </trkpt>
      <trkpt lat="47.00479" lon="-1.58769">
        <ele>20</ele>
        <time>2011-12-27T21:14:20Z</time>
      </trkpt>
      <trkpt lat="47.00469" lon="-1.58761">
        <ele>20</ele>
        <time>2011-12-27T21:14:23Z</time>
      </trkpt>
      <trkpt lat="47.00456" lon="-1.5875">
        <ele>17</ele>
        <time>2011-12-27T21:14:27Z</time>
      </trkpt>
      <trkpt lat="47.00443" lon="-1.58748">
        <ele>17</ele>
        <time>2011-12-27T21:14:30Z</time>
      </trkpt>
      <trkpt lat="47.00432" lon="-1.5875">
        <ele>17</ele>
        <time>2011-12-27T21:14:33Z</time>
      </trkpt>
      <trkpt lat="47.00418" lon="-1.58754">
        <ele>17</ele>
        <time>2011-12-27T21:14:37Z</time>
      </trkpt>
      <trkpt lat="47.00402" lon="-1.58755">
        <ele>17</ele>
        <time>2011-12-27T21:14:41Z</time>
      </trkpt>
      <trkpt lat="47.00389" lon="-1.58759">
        <ele>17</ele>
        <time>2011-12-27T21:14:45Z</time>
      </trkpt>
      <trkpt lat="47.00376" lon="-1.58765">
        <ele>17</ele>
        <time>2011-12-27T21:14:48Z</time>
      </trkpt>
      <trkpt lat="47.00366" lon="-1.58762">
        <ele>15</ele>
        <time>2011-12-27T21:14:51Z</time>
      </trkpt>
      <trkpt lat="47.00356" lon="-1.58762">
        <ele>15</ele>
        <time>2011-12-27T21:14:54Z</time>
      </trkpt>
      <trkpt lat="47.00344" lon="-1.58771">
        <ele>15</ele>
        <time>2011-12-27T21:14:57Z</time>
      </trkpt>
      <trkpt lat="47.00339" lon="-1.58778">
        <ele>15</ele>
        <time>2011-12-27T21:14:59Z</time>
      </trkpt>
      <trkpt lat="47.00336" lon="-1.58795">
        <ele>14</ele>
        <time>2011-12-27T21:15:03Z</time>
      </trkpt>
      <trkpt lat="47.00331" lon="-1.58804">
        <ele>14</ele>
        <time>2011-12-27T21:15:05Z</time>
      </trkpt>
      <trkpt lat="47.00325" lon="-1.58816">
        <ele>14</ele>
        <time>2011-12-27T21:15:07Z</time>
      </trkpt>
      <trkpt lat="47.00321" lon="-1.58821">
        <ele>14</ele>
        <time>2011-12-27T21:15:09Z</time>
      </trkpt>
      <trkpt lat="47.00311" lon="-1.5883">
        <ele>14</ele>
        <time>2011-12-27T21:15:12Z</time>
      </trkpt>
      <trkpt lat="47.00305" lon="-1.58837">
        <ele>14</ele>
        <time>2011-12-27T21:15:14Z</time>
      </trkpt>
      <trkpt lat="47.00297" lon="-1.58843">
        <ele>14</ele>
        <time>2011-12-27T21:15:16Z</time>
      </trkpt>
      <trkpt lat="47.00288" lon="-1.5885">
        <ele>11</ele>
        <time>2011-12-27T21:15:19Z</time>
      </trkpt>
      <trkpt lat="47.00279" lon="-1.58863">
        <ele>11</ele>
        <time>2011-12-27T21:15:22Z</time>
      </trkpt>
      <trkpt lat="47.00274" lon="-1.58873">
        <ele>11</ele>
        <time>2011-12-27T21:15:25Z</time>
      </trkpt>
      <trkpt lat="47.00267" lon="-1.58889">
        <ele>10</ele>
        <time>2011-12-27T21:15:28Z</time>
      </trkpt>
      <trkpt lat="47.00264" lon="-1.58903">
        <ele>10</ele>
        <time>2011-12-27T21:15:31Z</time>
      </trkpt>
      <trkpt lat="47.00262" lon="-1.58922">
        <ele>10</ele>
        <time>2011-12-27T21:15:34Z</time>
      </trkpt>
      <trkpt lat="47.00258" lon="-1.58929">
        <ele>10</ele>
        <time>2011-12-27T21:15:36Z</time>
      </trkpt>
      <trkpt lat="47.00254" lon="-1.58945">
        <ele>10</ele>
        <time>2011-12-27T21:15:39Z</time>
      </trkpt>
      <trkpt lat="47.00252" lon="-1.58954">
        <ele>10</ele>
        <time>2011-12-27T21:15:41Z</time>
      </trkpt>
      <trkpt lat="47.00251" lon="-1.58965">
        <ele>12</ele>
        <time>2011-12-27T21:15:43Z</time>
      </trkpt>
      <trkpt lat="47.00247" lon="-1.58975">
        <ele>12</ele>
        <time>2011-12-27T21:15:45Z</time>
      </trkpt>
      <trkpt lat="47.00243" lon="-1.58978">
        <ele>12</ele>
        <time>2011-12-27T21:15:46Z</time>
      </trkpt>
      <trkpt lat="47.00249" lon="-1.58985">
        <ele>12</ele>
        <time>2011-12-27T21:15:48Z</time>
      </trkpt>
      <trkpt lat="47.00253" lon="-1.58994">
        <ele>12</ele>
        <time>2011-12-27T21:15:50Z</time>
      </trkpt>
      <trkpt lat="47.0025" lon="-1.59">
        <ele>12</ele>
        <time>2011-12-27T21:15:51Z</time>
      </trkpt>
      <trkpt lat="47.00246" lon="-1.59006">
        <ele>12</ele>
        <time>2011-12-27T21:15:53Z</time>
      </trkpt>
      <trkpt lat="47.00229" lon="-1.59027">
        <ele>12</ele>
        <time>2011-12-27T21:15:59Z</time>
      </trkpt>
      <trkpt lat="47.0021" lon="-1.59043">
        <ele>14</ele>
        <time>2011-12-27T21:16:05Z</time>
      </trkpt>
      <trkpt lat="47.00198" lon="-1.59054">
        <ele>13</ele>
        <time>2011-12-27T21:16:08Z</time>
      </trkpt>
      <trkpt lat="47.00184" lon="-1.59064">
        <ele>13</ele>
        <time>2011-12-27T21:16:12Z</time>
      </trkpt>
      <trkpt lat="47.00166" lon="-1.59071">
        <ele>13</ele>
        <time>2011-12-27T21:16:18Z</time>
      </trkpt>
      <trkpt lat="47.00151" lon="-1.59074">
        <ele>13</ele>
        <time>2011-12-27T21:16:22Z</time>
      </trkpt>
      <trkpt lat="47.0014" lon="-1.59075">
        <ele>13</ele>
        <time>2011-12-27T21:16:25Z</time>
      </trkpt>
      <trkpt lat="47.0013" lon="-1.59074">
        <ele>13</ele>
        <time>2011-12-27T21:16:27Z</time>
      </trkpt>
      <trkpt lat="47.00121" lon="-1.59078">
        <ele>11</ele>
        <time>2011-12-27T21:16:30Z</time>
      </trkpt>
      <trkpt lat="47.00124" lon="-1.59084">
        <ele>11</ele>
        <time>2011-12-27T21:16:31Z</time>
      </trkpt>
      <trkpt lat="47.00132" lon="-1.59089">
        <ele>13</ele>
        <time>2011-12-27T21:16:33Z</time>
      </trkpt>
      <trkpt lat="47.00139" lon="-1.59094">
        <ele>13</ele>
        <time>2011-12-27T21:16:35Z</time>
      </trkpt>
      <trkpt lat="47.00144" lon="-1.59103">
        <ele>13</ele>
        <time>2011-12-27T21:16:37Z</time>
      </trkpt>
      <trkpt lat="47.0015" lon="-1.59123">
        <ele>13</ele>
        <time>2011-12-27T21:16:41Z</time>
      </trkpt>
      <trkpt lat="47.0016" lon="-1.5915">
        <ele>14</ele>
        <time>2011-12-27T21:16:47Z</time>
      </trkpt>
      <trkpt lat="47.00169" lon="-1.5917">
        <ele>14</ele>
        <time>2011-12-27T21:16:52Z</time>
      </trkpt>
      <trkpt lat="47.00176" lon="-1.59183">
        <ele>14</ele>
        <time>2011-12-27T21:16:54Z</time>
      </trkpt>
      <trkpt lat="47.00182" lon="-1.59201">
        <ele>14</ele>
        <time>2011-12-27T21:16:58Z</time>
      </trkpt>
      <trkpt lat="47.00184" lon="-1.59216">
        <ele>14</ele>
        <time>2011-12-27T21:17:01Z</time>
      </trkpt>
      <trkpt lat="47.00185" lon="-1.59253">
        <ele>14</ele>
        <time>2011-12-27T21:17:08Z</time>
      </trkpt>
      <trkpt lat="47.00186" lon="-1.59293">
        <ele>16</ele>
        <time>2011-12-27T21:17:15Z</time>
      </trkpt>
      <trkpt lat="47.00182" lon="-1.59335">
        <ele>16</ele>
        <time>2011-12-27T21:17:23Z</time>
      </trkpt>
      <trkpt lat="47.00179" lon="-1.59369">
        <ele>16</ele>
        <time>2011-12-27T21:17:29Z</time>
      </trkpt>
      <trkpt lat="47.00176" lon="-1.59405">
        <ele>18</ele>
        <time>2011-12-27T21:17:35Z</time>
      </trkpt>
      <trkpt lat="47.00176" lon="-1.59428">
        <ele>18</ele>
        <time>2011-12-27T21:17:40Z</time>
      </trkpt>
      <trkpt lat="47.00182" lon="-1.59447">
        <ele>18</ele>
        <time>2011-12-27T21:17:43Z</time>
      </trkpt>
      <trkpt lat="47.00189" lon="-1.59468">
        <ele>18</ele>
        <time>2011-12-27T21:17:48Z</time>
      </trkpt>
      <trkpt lat="47.00199" lon="-1.5949">
        <ele>18</ele>
        <time>2011-12-27T21:17:52Z</time>
      </trkpt>
      <trkpt lat="47.00214" lon="-1.59515">
        <ele>18</ele>
        <time>2011-12-27T21:17:59Z</time>
      </trkpt>
      <trkpt lat="47.00226" lon="-1.59537">
        <ele>18</ele>
        <time>2011-12-27T21:18:04Z</time>
      </trkpt>
      <trkpt lat="47.00232" lon="-1.59567">
        <ele>19</ele>
        <time>2011-12-27T21:18:09Z</time>
      </trkpt>
      <trkpt lat="47.00233" lon="-1.59593">
        <ele>19</ele>
        <time>2011-12-27T21:18:14Z</time>
      </trkpt>
      <trkpt lat="47.00235" lon="-1.59618">
        <ele>19</ele>
        <time>2011-12-27T21:18:19Z</time>
      </trkpt>
      <trkpt lat="47.00237" lon="-1.59645">
        <ele>18</ele>
        <time>2011-12-27T21:18:24Z</time>
      </trkpt>
      <trkpt lat="47.00238" lon="-1.5967">
        <ele>18</ele>
        <time>2011-12-27T21:18:28Z</time>
      </trkpt>
      <trkpt lat="47.00239" lon="-1.59693">
        <ele>18</ele>
        <time>2011-12-27T21:18:32Z</time>
      </trkpt>
      <trkpt lat="47.0024" lon="-1.59707">
        <ele>18</ele>
        <time>2011-12-27T21:18:35Z</time>
      </trkpt>
      <trkpt lat="47.00265" lon="-1.59718">
        <ele>19</ele>
        <time>2011-12-27T21:18:42Z</time>
      </trkpt>
      <trkpt lat="47.00287" lon="-1.59717">
        <ele>19</ele>
        <time>2011-12-27T21:18:48Z</time>
      </trkpt>
      <trkpt lat="47.0032" lon="-1.59712">
        <ele>18</ele>
        <time>2011-12-27T21:18:57Z</time>
      </trkpt>
      <trkpt lat="47.00344" lon="-1.59707">
        <ele>18</ele>
        <time>2011-12-27T21:19:03Z</time>
      </trkpt>
      <trkpt lat="47.00371" lon="-1.59706">
        <ele>18</ele>
        <time>2011-12-27T21:19:10Z</time>
      </trkpt>
      <trkpt lat="47.0039" lon="-1.59711">
        <ele>16</ele>
        <time>2011-12-27T21:19:16Z</time>
      </trkpt>
      <trkpt lat="47.00406" lon="-1.59723">
        <ele>16</ele>
        <time>2011-12-27T21:19:20Z</time>
      </trkpt>
      <trkpt lat="47.00423" lon="-1.59746">
        <ele>16</ele>
        <time>2011-12-27T21:19:26Z</time>
      </trkpt>
      <trkpt lat="47.00437" lon="-1.59771">
        <ele>16</ele>
        <time>2011-12-27T21:19:32Z</time>
      </trkpt>
      <trkpt lat="47.00452" lon="-1.59801">
        <ele>16</ele>
        <time>2011-12-27T21:19:39Z</time>
      </trkpt>
      <trkpt lat="47.00463" lon="-1.59823">
        <ele>14</ele>
        <time>2011-12-27T21:19:44Z</time>
      </trkpt>
      <trkpt lat="47.00478" lon="-1.59855">
        <ele>14</ele>
        <time>2011-12-27T21:19:51Z</time>
      </trkpt>
      <trkpt lat="47.00499" lon="-1.59896">
        <ele>13</ele>
        <time>2011-12-27T21:20:01Z</time>
      </trkpt>
      <trkpt lat="47.00528" lon="-1.59961">
        <ele>13</ele>
        <time>2011-12-27T21:20:15Z</time>
      </trkpt>
      <trkpt lat="47.00554" lon="-1.60013">
        <ele>13</ele>
        <time>2011-12-27T21:20:26Z</time>
      </trkpt>
      <trkpt lat="47.00581" lon="-1.60066">
        <ele>13</ele>
        <time>2011-12-27T21:20:38Z</time>
      </trkpt>
      <trkpt lat="47.00596" lon="-1.60094">
        <ele>13</ele>
        <time>2011-12-27T21:20:45Z</time>
      </trkpt>
      <trkpt lat="47.00611" lon="-1.60127">
        <ele>14</ele>
        <time>2011-12-27T21:20:52Z</time>
      </trkpt>
      <trkpt lat="47.00637" lon="-1.60171">
        <ele>16</ele>
        <time>2011-12-27T21:21:03Z</time>
      </trkpt>
      <trkpt lat="47.00649" lon="-1.60183">
        <ele>16</ele>
        <time>2011-12-27T21:21:07Z</time>
      </trkpt>
      <trkpt lat="47.00658" lon="-1.60193">
        <ele>16</ele>
        <time>2011-12-27T21:21:10Z</time>
      </trkpt>
      <trkpt lat="47.00648" lon="-1.60208">
        <ele>16</ele>
        <time>2011-12-27T21:21:13Z</time>
      </trkpt>
      <trkpt lat="47.00638" lon="-1.60227">
        <ele>18</ele>
        <time>2011-12-27T21:21:18Z</time>
      </trkpt>
      <trkpt lat="47.00633" lon="-1.60249">
        <ele>18</ele>
        <time>2011-12-27T21:21:22Z</time>
      </trkpt>
      <trkpt lat="47.00632" lon="-1.60276">
        <ele>18</ele>
        <time>2011-12-27T21:21:27Z</time>
      </trkpt>
      <trkpt lat="47.00633" lon="-1.60301">
        <ele>20</ele>
        <time>2011-12-27T21:21:31Z</time>
      </trkpt>
      <trkpt lat="47.00633" lon="-1.6033">
        <ele>20</ele>
        <time>2011-12-27T21:21:37Z</time>
      </trkpt>
      <trkpt lat="47.00632" lon="-1.6036">
        <ele>20</ele>
        <time>2011-12-27T21:21:42Z</time>
      </trkpt>
      <trkpt lat="47.00633" lon="-1.60386">
        <ele>18</ele>
        <time>2011-12-27T21:21:47Z</time>
      </trkpt>
      <trkpt lat="47.0063" lon="-1.60425">
        <ele>18</ele>
        <time>2011-12-27T21:21:54Z</time>
      </trkpt>
      <trkpt lat="47.00629" lon="-1.60437">
        <ele>18</ele>
        <time>2011-12-27T21:21:56Z</time>
      </trkpt>
      <trkpt lat="47.0063" lon="-1.60447">
        <ele>18</ele>
        <time>2011-12-27T21:21:58Z</time>
      </trkpt>
      <trkpt lat="47.00629" lon="-1.60484">
        <ele>18</ele>
        <time>2011-12-27T21:22:05Z</time>
      </trkpt>
      <trkpt lat="47.0063" lon="-1.60517">
        <ele>18</ele>
        <time>2011-12-27T21:22:11Z</time>
      </trkpt>
      <trkpt lat="47.00634" lon="-1.60544">
        <ele>19</ele>
        <time>2011-12-27T21:22:16Z</time>
      </trkpt>
      <trkpt lat="47.00638" lon="-1.60572">
        <ele>19</ele>
        <time>2011-12-27T21:22:21Z</time>
      </trkpt>
      <trkpt lat="47.00641" lon="-1.60593">
        <ele>19</ele>
        <time>2011-12-27T21:22:25Z</time>
      </trkpt>
      <trkpt lat="47.00662" lon="-1.60655">
        <ele>19</ele>
        <time>2011-12-27T21:22:38Z</time>
      </trkpt>
      <trkpt lat="47.00676" lon="-1.60687">
        <ele>19</ele>
        <time>2011-12-27T21:22:44Z</time>
      </trkpt>
      <trkpt lat="47.00687" lon="-1.60722">
        <ele>20</ele>
        <time>2011-12-27T21:22:52Z</time>
      </trkpt>
      <trkpt lat="47.00701" lon="-1.60748">
        <ele>20</ele>
        <time>2011-12-27T21:22:57Z</time>
      </trkpt>
      <trkpt lat="47.0072" lon="-1.60775">
        <ele>21</ele>
        <time>2011-12-27T21:23:05Z</time>
      </trkpt>
      <trkpt lat="47.00739" lon="-1.608">
        <ele>20</ele>
        <time>2011-12-27T21:23:11Z</time>
      </trkpt>
      <trkpt lat="47.00749" lon="-1.60838">
        <ele>20</ele>
        <time>2011-12-27T21:23:19Z</time>
      </trkpt>
      <trkpt lat="47.00767" lon="-1.60889">
        <ele>20</ele>
        <time>2011-12-27T21:23:29Z</time>
      </trkpt>
      <trkpt lat="47.00775" lon="-1.60915">
        <ele>20</ele>
        <time>2011-12-27T21:23:34Z</time>
      </trkpt>
      <trkpt lat="47.00778" lon="-1.60958">
        <ele>20</ele>
        <time>2011-12-27T21:23:42Z</time>
      </trkpt>
      <trkpt lat="47.00785" lon="-1.60995">
        <ele>20</ele>
        <time>2011-12-27T21:23:49Z</time>
      </trkpt>
      <trkpt lat="47.00794" lon="-1.61031">
        <ele>23</ele>
        <time>2011-12-27T21:23:56Z</time>
      </trkpt>
      <trkpt lat="47.00809" lon="-1.61066">
        <ele>19</ele>
        <time>2011-12-27T21:24:04Z</time>
      </trkpt>
      <trkpt lat="47.00825" lon="-1.61093">
        <ele>19</ele>
        <time>2011-12-27T21:24:10Z</time>
      </trkpt>
      <trkpt lat="47.00847" lon="-1.61121">
        <ele>19</ele>
        <time>2011-12-27T21:24:18Z</time>
      </trkpt>
      <trkpt lat="47.00868" lon="-1.61095">
        <ele>19</ele>
        <time>2011-12-27T21:24:25Z</time>
      </trkpt>
      <trkpt lat="47.00889" lon="-1.61069">
        <ele>23</ele>
        <time>2011-12-27T21:24:33Z</time>
      </trkpt>
      <trkpt lat="47.009" lon="-1.61054">
        <ele>23</ele>
        <time>2011-12-27T21:24:37Z</time>
      </trkpt>
      <trkpt lat="47.00917" lon="-1.61045">
        <ele>23</ele>
        <time>2011-12-27T21:24:42Z</time>
      </trkpt>
      <trkpt lat="47.00941" lon="-1.61038">
        <ele>23</ele>
        <time>2011-12-27T21:24:48Z</time>
      </trkpt>
      <trkpt lat="47.00956" lon="-1.6104">
        <ele>23</ele>
        <time>2011-12-27T21:24:52Z</time>
      </trkpt>
      <trkpt lat="47.00981" lon="-1.61046">
        <ele>24</ele>
        <time>2011-12-27T21:24:59Z</time>
      </trkpt>
      <trkpt lat="47.00996" lon="-1.61051">
        <ele>24</ele>
        <time>2011-12-27T21:25:03Z</time>
      </trkpt>
      <trkpt lat="47.00999" lon="-1.61086">
        <ele>24</ele>
        <time>2011-12-27T21:25:09Z</time>
      </trkpt>
      <trkpt lat="47.00999" lon="-1.61118">
        <ele>24</ele>
        <time>2011-12-27T21:25:15Z</time>
      </trkpt>
      <trkpt lat="47.00997" lon="-1.61175">
        <ele>23</ele>
        <time>2011-12-27T21:25:26Z</time>
      </trkpt>
      <trkpt lat="47.00998" lon="-1.61227">
        <ele>24</ele>
        <time>2011-12-27T21:25:35Z</time>
      </trkpt>
      <trkpt lat="47.00995" lon="-1.61287">
        <ele>24</ele>
        <time>2011-12-27T21:25:46Z</time>
      </trkpt>
      <trkpt lat="47.00991" lon="-1.61354">
        <ele>23</ele>
        <time>2011-12-27T21:25:58Z</time>
      </trkpt>
      <trkpt lat="47.00992" lon="-1.61408">
        <ele>23</ele>
        <time>2011-12-27T21:26:08Z</time>
      </trkpt>
      <trkpt lat="47.00991" lon="-1.61473">
        <ele>24</ele>
        <time>2011-12-27T21:26:20Z</time>
      </trkpt>
      <trkpt lat="47.00991" lon="-1.61504">
        <ele>24</ele>
        <time>2011-12-27T21:26:26Z</time>
      </trkpt>
      <trkpt lat="47.00991" lon="-1.61531">
        <ele>24</ele>
        <time>2011-12-27T21:26:31Z</time>
      </trkpt>
      <trkpt lat="47.00988" lon="-1.61569">
        <ele>25</ele>
        <time>2011-12-27T21:26:38Z</time>
      </trkpt>
      <trkpt lat="47.00984" lon="-1.61593">
        <ele>25</ele>
        <time>2011-12-27T21:26:42Z</time>
      </trkpt>
      <trkpt lat="47.00979" lon="-1.61615">
        <ele>25</ele>
        <time>2011-12-27T21:26:46Z</time>
      </trkpt>
      <trkpt lat="47.00975" lon="-1.6165">
        <ele>25</ele>
        <time>2011-12-27T21:26:53Z</time>
      </trkpt>
      <trkpt lat="47.00967" lon="-1.61681">
        <ele>25</ele>
        <time>2011-12-27T21:26:59Z</time>
      </trkpt>
      <trkpt lat="47.00965" lon="-1.61706">
        <ele>25</ele>
        <time>2011-12-27T21:27:03Z</time>
      </trkpt>
      <trkpt lat="47.00963" lon="-1.61726">
        <ele>26</ele>
        <time>2011-12-27T21:27:07Z</time>
      </trkpt>
      <trkpt lat="47.0096" lon="-1.6174">
        <ele>26</ele>
        <time>2011-12-27T21:27:10Z</time>
      </trkpt>
      <trkpt lat="47.00957" lon="-1.61759">
        <ele>23</ele>
        <time>2011-12-27T21:27:13Z</time>
      </trkpt>
      <trkpt lat="47.00951" lon="-1.6178">
        <ele>23</ele>
        <time>2011-12-27T21:27:17Z</time>
      </trkpt>
      <trkpt lat="47.00936" lon="-1.61825">
        <ele>25</ele>
        <time>2011-12-27T21:27:26Z</time>
      </trkpt>
      <trkpt lat="47.00921" lon="-1.61867">
        <ele>25</ele>
        <time>2011-12-27T21:27:35Z</time>
      </trkpt>
      <trkpt lat="47.00903" lon="-1.619">
        <ele>25</ele>
        <time>2011-12-27T21:27:43Z</time>
      </trkpt>
      <trkpt lat="47.00874" lon="-1.61938">
        <ele>21</ele>
        <time>2011-12-27T21:27:53Z</time>
      </trkpt>
      <trkpt lat="47.00858" lon="-1.61969">
        <ele>21</ele>
        <time>2011-12-27T21:28:00Z</time>
      </trkpt>
      <trkpt lat="47.00847" lon="-1.6203">
        <ele>21</ele>
        <time>2011-12-27T21:28:12Z</time>
      </trkpt>
      <trkpt lat="47.00837" lon="-1.62087">
        <ele>21</ele>
        <time>2011-12-27T21:28:22Z</time>
      </trkpt>
      <trkpt lat="47.00825" lon="-1.62143">
        <ele>20</ele>
        <time>2011-12-27T21:28:33Z</time>
      </trkpt>
      <trkpt lat="47.00801" lon="-1.62218">
        <ele>22</ele>
        <time>2011-12-27T21:28:48Z</time>
      </trkpt>
      <trkpt lat="47.00787" lon="-1.6225">
        <ele>19</ele>
        <time>2011-12-27T21:28:55Z</time>
      </trkpt>
      <trkpt lat="47.00709" lon="-1.62473">
        <ele>23</ele>
        <time>2011-12-27T21:29:41Z</time>
      </trkpt>
      <trkpt lat="47.00672" lon="-1.62606">
        <ele>22</ele>
        <time>2011-12-27T21:30:07Z</time>
      </trkpt>
      <trkpt lat="47.00662" lon="-1.62681">
        <ele>24</ele>
        <time>2011-12-27T21:30:21Z</time>
      </trkpt>
      <trkpt lat="47.00657" lon="-1.62761">
        <ele>25</ele>
        <time>2011-12-27T21:30:35Z</time>
      </trkpt>
      <trkpt lat="47.00647" lon="-1.62835">
        <ele>26</ele>
        <time>2011-12-27T21:30:49Z</time>
      </trkpt>
      <trkpt lat="47.00642" lon="-1.62866">
        <ele>26</ele>
        <time>2011-12-27T21:30:55Z</time>
      </trkpt>
      <trkpt lat="47.00638" lon="-1.62883">
        <ele>26</ele>
        <time>2011-12-27T21:30:58Z</time>
      </trkpt>
      <trkpt lat="47.00625" lon="-1.62882">
        <ele>26</ele>
        <time>2011-12-27T21:31:01Z</time>
      </trkpt>
      <trkpt lat="47.00604" lon="-1.629">
        <ele>29</ele>
        <time>2011-12-27T21:31:08Z</time>
      </trkpt>
      <trkpt lat="47.00587" lon="-1.6291">
        <ele>29</ele>
        <time>2011-12-27T21:31:13Z</time>
      </trkpt>
      <trkpt lat="47.00578" lon="-1.62915">
        <ele>29</ele>
        <time>2011-12-27T21:31:15Z</time>
      </trkpt>
      <trkpt lat="47.00565" lon="-1.6292">
        <ele>29</ele>
        <time>2011-12-27T21:31:19Z</time>
      </trkpt>
      <trkpt lat="47.00556" lon="-1.62923">
        <ele>29</ele>
        <time>2011-12-27T21:31:22Z</time>
      </trkpt>
      <trkpt lat="47.00543" lon="-1.62928">
        <ele>29</ele>
        <time>2011-12-27T21:31:25Z</time>
      </trkpt>
      <trkpt lat="47.00503" lon="-1.62954">
        <ele>31</ele>
        <time>2011-12-27T21:31:37Z</time>
      </trkpt>
      <trkpt lat="47.00484" lon="-1.62966">
        <ele>32</ele>
        <time>2011-12-27T21:31:42Z</time>
      </trkpt>
      <trkpt lat="47.00473" lon="-1.62973">
        <ele>32</ele>
        <time>2011-12-27T21:31:45Z</time>
      </trkpt>
      <trkpt lat="47.00461" lon="-1.62982">
        <ele>32</ele>
        <time>2011-12-27T21:31:49Z</time>
      </trkpt>
      <trkpt lat="47.00455" lon="-1.62992">
        <ele>34</ele>
        <time>2011-12-27T21:31:51Z</time>
      </trkpt>
      <trkpt lat="47.00445" lon="-1.62998">
        <ele>34</ele>
        <time>2011-12-27T21:31:54Z</time>
      </trkpt>
      <trkpt lat="47.00423" lon="-1.63004">
        <ele>34</ele>
        <time>2011-12-27T21:32:00Z</time>
      </trkpt>
      <trkpt lat="47.00408" lon="-1.63011">
        <ele>34</ele>
        <time>2011-12-27T21:32:04Z</time>
      </trkpt>
      <trkpt lat="47.00393" lon="-1.63018">
        <ele>34</ele>
        <time>2011-12-27T21:32:09Z</time>
      </trkpt>
      <trkpt lat="47.00378" lon="-1.63025">
        <ele>34</ele>
        <time>2011-12-27T21:32:13Z</time>
      </trkpt>
      <trkpt lat="47.00367" lon="-1.63031">
        <ele>31</ele>
        <time>2011-12-27T21:32:16Z</time>
      </trkpt>
      <trkpt lat="47.00359" lon="-1.63052">
        <ele>32</ele>
        <time>2011-12-27T21:32:20Z</time>
      </trkpt>
      <trkpt lat="47.00355" lon="-1.63104">
        <ele>32</ele>
        <time>2011-12-27T21:32:30Z</time>
      </trkpt>
      <trkpt lat="47.00353" lon="-1.63142">
        <ele>35</ele>
        <time>2011-12-27T21:32:37Z</time>
      </trkpt>
      <trkpt lat="47.00361" lon="-1.63165">
        <ele>35</ele>
        <time>2011-12-27T21:32:41Z</time>
      </trkpt>
      <trkpt lat="47.00368" lon="-1.63179">
        <ele>35</ele>
        <time>2011-12-27T21:32:45Z</time>
      </trkpt>
      <trkpt lat="47.00377" lon="-1.63205">
        <ele>37</ele>
        <time>2011-12-27T21:32:50Z</time>
      </trkpt>
      <trkpt lat="47.00385" lon="-1.63224">
        <ele>37</ele>
        <time>2011-12-27T21:32:54Z</time>
      </trkpt>
      <trkpt lat="47.00392" lon="-1.63238">
        <ele>37</ele>
        <time>2011-12-27T21:32:57Z</time>
      </trkpt>
      <trkpt lat="47.00394" lon="-1.63253">
        <ele>37</ele>
        <time>2011-12-27T21:33:00Z</time>
      </trkpt>
      <trkpt lat="47.0041" lon="-1.63297">
        <ele>37</ele>
        <time>2011-12-27T21:33:09Z</time>
      </trkpt>
      <trkpt lat="47.00437" lon="-1.63348">
        <ele>37</ele>
        <time>2011-12-27T21:33:21Z</time>
      </trkpt>
      <trkpt lat="47.00471" lon="-1.63393">
        <ele>38</ele>
        <time>2011-12-27T21:33:33Z</time>
      </trkpt>
      <trkpt lat="47.00497" lon="-1.63432">
        <ele>38</ele>
        <time>2011-12-27T21:33:43Z</time>
      </trkpt>
      <trkpt lat="47.00525" lon="-1.63472">
        <ele>37</ele>
        <time>2011-12-27T21:33:53Z</time>
      </trkpt>
      <trkpt lat="47.00542" lon="-1.63503">
        <ele>36</ele>
        <time>2011-12-27T21:34:00Z</time>
      </trkpt>
      <trkpt lat="47.00552" lon="-1.63536">
        <ele>36</ele>
        <time>2011-12-27T21:34:07Z</time>
      </trkpt>
      <trkpt lat="47.00569" lon="-1.63605">
        <ele>37</ele>
        <time>2011-12-27T21:34:20Z</time>
      </trkpt>
      <trkpt lat="47.00577" lon="-1.6365">
        <ele>36</ele>
        <time>2011-12-27T21:34:29Z</time>
      </trkpt>
      <trkpt lat="47.00588" lon="-1.63704">
        <ele>36</ele>
        <time>2011-12-27T21:34:39Z</time>
      </trkpt>
      <trkpt lat="47.00594" lon="-1.63738">
        <ele>38</ele>
        <time>2011-12-27T21:34:46Z</time>
      </trkpt>
      <trkpt lat="47.00608" lon="-1.63807">
        <ele>41</ele>
        <time>2011-12-27T21:34:59Z</time>
      </trkpt>
      <trkpt lat="47.00619" lon="-1.63856">
        <ele>41</ele>
        <time>2011-12-27T21:35:08Z</time>
      </trkpt>
      <trkpt lat="47.00619" lon="-1.63895">
        <ele>40</ele>
        <time>2011-12-27T21:35:15Z</time>
      </trkpt>
      <trkpt lat="47.00624" lon="-1.63951">
        <ele>40</ele>
        <time>2011-12-27T21:35:25Z</time>
      </trkpt>
      <trkpt lat="47.00628" lon="-1.63997">
        <ele>40</ele>
        <time>2011-12-27T21:35:34Z</time>
      </trkpt>
      <trkpt lat="47.00635" lon="-1.6404">
        <ele>40</ele>
        <time>2011-12-27T21:35:42Z</time>
      </trkpt>
      <trkpt lat="47.00638" lon="-1.64084">
        <ele>42</ele>
        <time>2011-12-27T21:35:50Z</time>
      </trkpt>
      <trkpt lat="47.00636" lon="-1.641">
        <ele>42</ele>
        <time>2011-12-27T21:35:53Z</time>
      </trkpt>
      <trkpt lat="47.00601" lon="-1.64075">
        <ele>42</ele>
        <time>2011-12-27T21:36:03Z</time>
      </trkpt>
      <trkpt lat="47.00499" lon="-1.64043">
        <ele>41</ele>
        <time>2011-12-27T21:36:31Z</time>
      </trkpt>
      <trkpt lat="47.00398" lon="-1.64012">
        <ele>41</ele>
        <time>2011-12-27T21:36:59Z</time>
      </trkpt>
      <trkpt lat="47.00339" lon="-1.6396">
        <ele>42</ele>
        <time>2011-12-27T21:37:17Z</time>
      </trkpt>
      <trkpt lat="47.003" lon="-1.63996">
        <ele>42</ele>
        <time>2011-12-27T21:37:29Z</time>
      </trkpt>
      <trkpt lat="47.00259" lon="-1.64016">
        <ele>40</ele>
        <time>2011-12-27T21:37:41Z</time>
      </trkpt>
      <trkpt lat="47.00222" lon="-1.64044">
        <ele>41</ele>
        <time>2011-12-27T21:37:52Z</time>
      </trkpt>
      <trkpt lat="47.00198" lon="-1.64064">
        <ele>40</ele>
        <time>2011-12-27T21:37:59Z</time>
      </trkpt>
      <trkpt lat="47.00193" lon="-1.64068">
        <ele>40</ele>
        <time>2011-12-27T21:38:01Z</time>
      </trkpt>
      <trkpt lat="47.00264" lon="-1.64233">
        <ele>43</ele>
        <time>2011-12-27T21:38:36Z</time>
      </trkpt>
      <trkpt lat="47.00306" lon="-1.64304">
        <ele>44</ele>
        <time>2011-12-27T21:38:53Z</time>
      </trkpt>
      <trkpt lat="47.00311" lon="-1.64313">
        <ele>44</ele>
        <time>2011-12-27T21:38:56Z</time>
      </trkpt>
      <trkpt lat="47.00404" lon="-1.6446">
        <ele>43</ele>
        <time>2011-12-27T21:39:32Z</time>
      </trkpt>
      <trkpt lat="47.0046" lon="-1.64565">
        <ele>46</ele>
        <time>2011-12-27T21:39:56Z</time>
      </trkpt>
      <trkpt lat="47.00495" lon="-1.64634">
        <ele>46</ele>
        <time>2011-12-27T21:40:12Z</time>
      </trkpt>
      <trkpt lat="47.00513" lon="-1.64663">
        <ele>46</ele>
        <time>2011-12-27T21:40:19Z</time>
      </trkpt>
      <trkpt lat="47.00503" lon="-1.64683">
        <ele>46</ele>
        <time>2011-12-27T21:40:24Z</time>
      </trkpt>
      <trkpt lat="47.00471" lon="-1.64706">
        <ele>46</ele>
        <time>2011-12-27T21:40:33Z</time>
      </trkpt>
      <trkpt lat="47.00431" lon="-1.64734">
        <ele>43</ele>
        <time>2011-12-27T21:40:45Z</time>
      </trkpt>
      <trkpt lat="47.00405" lon="-1.64755">
        <ele>43</ele>
        <time>2011-12-27T21:40:53Z</time>
      </trkpt>
      <trkpt lat="47.00379" lon="-1.64779">
        <ele>43</ele>
        <time>2011-12-27T21:41:01Z</time>
      </trkpt>
      <trkpt lat="47.00364" lon="-1.648">
        <ele>39</ele>
        <time>2011-12-27T21:41:07Z</time>
      </trkpt>
      <trkpt lat="47.00511" lon="-1.65097">
        <ele>41</ele>
        <time>2011-12-27T21:42:13Z</time>
      </trkpt>
      <trkpt lat="47.00577" lon="-1.65228">
        <ele>40</ele>
        <time>2011-12-27T21:42:43Z</time>
      </trkpt>
      <trkpt lat="47.00664" lon="-1.6538">
        <ele>39</ele>
        <time>2011-12-27T21:43:19Z</time>
      </trkpt>
      <trkpt lat="47.00642" lon="-1.65414">
        <ele>39</ele>
        <time>2011-12-27T21:43:28Z</time>
      </trkpt>
      <trkpt lat="47.00638" lon="-1.65452">
        <ele>39</ele>
        <time>2011-12-27T21:43:35Z</time>
      </trkpt>
      <trkpt lat="47.00633" lon="-1.65524">
        <ele>38</ele>
        <time>2011-12-27T21:43:48Z</time>
      </trkpt>
      <trkpt lat="47.00635" lon="-1.6558">
        <ele>39</ele>
        <time>2011-12-27T21:43:58Z</time>
      </trkpt>
      <trkpt lat="47.00636" lon="-1.65614">
        <ele>39</ele>
        <time>2011-12-27T21:44:04Z</time>
      </trkpt>
      <trkpt lat="47.00649" lon="-1.6566">
        <ele>38</ele>
        <time>2011-12-27T21:44:13Z</time>
      </trkpt>
      <trkpt lat="47.0066" lon="-1.65689">
        <ele>38</ele>
        <time>2011-12-27T21:44:19Z</time>
      </trkpt>
      <trkpt lat="47.00671" lon="-1.65714">
        <ele>36</ele>
        <time>2011-12-27T21:44:25Z</time>
      </trkpt>
      <trkpt lat="47.00678" lon="-1.65729">
        <ele>36</ele>
        <time>2011-12-27T21:44:28Z</time>
      </trkpt>
      <trkpt lat="47.00696" lon="-1.65719">
        <ele>36</ele>
        <time>2011-12-27T21:44:33Z</time>
      </trkpt>
      <trkpt lat="47.00704" lon="-1.65707">
        <ele>38</ele>
        <time>2011-12-27T21:44:36Z</time>
      </trkpt>
      <trkpt lat="47.0072" lon="-1.65713">
        <ele>41</ele>
        <time>2011-12-27T21:44:41Z</time>
      </trkpt>
      <trkpt lat="47.00731" lon="-1.65728">
        <ele>41</ele>
        <time>2011-12-27T21:44:45Z</time>
      </trkpt>
      <trkpt lat="47.00735" lon="-1.65743">
        <ele>41</ele>
        <time>2011-12-27T21:44:48Z</time>
      </trkpt>
      <trkpt lat="47.00745" lon="-1.65782">
        <ele>41</ele>
        <time>2011-12-27T21:44:55Z</time>
      </trkpt>
      <trkpt lat="47.00762" lon="-1.65827">
        <ele>40</ele>
        <time>2011-12-27T21:45:04Z</time>
      </trkpt>
      <trkpt lat="47.00792" lon="-1.65873">
        <ele>44</ele>
        <time>2011-12-27T21:45:16Z</time>
      </trkpt>
      <trkpt lat="47.0082" lon="-1.65905">
        <ele>41</ele>
        <time>2011-12-27T21:45:26Z</time>
      </trkpt>
      <trkpt lat="47.00847" lon="-1.6595">
        <ele>41</ele>
        <time>2011-12-27T21:45:36Z</time>
      </trkpt>
      <trkpt lat="47.00885" lon="-1.66029">
        <ele>45</ele>
        <time>2011-12-27T21:45:54Z</time>
      </trkpt>
      <trkpt lat="47.00917" lon="-1.66082">
        <ele>42</ele>
        <time>2011-12-27T21:46:07Z</time>
      </trkpt>
      <trkpt lat="47.00944" lon="-1.66115">
        <ele>42</ele>
        <time>2011-12-27T21:46:16Z</time>
      </trkpt>
      <trkpt lat="47.00988" lon="-1.6616">
        <ele>43</ele>
        <time>2011-12-27T21:46:31Z</time>
      </trkpt>
      <trkpt lat="47.01034" lon="-1.662">
        <ele>43</ele>
        <time>2011-12-27T21:46:45Z</time>
      </trkpt>
      <trkpt lat="47.01052" lon="-1.66216">
        <ele>44</ele>
        <time>2011-12-27T21:46:50Z</time>
      </trkpt>
      <trkpt lat="47.01074" lon="-1.66211">
        <ele>44</ele>
        <time>2011-12-27T21:46:56Z</time>
      </trkpt>
      <trkpt lat="47.01094" lon="-1.66199">
        <ele>46</ele>
        <time>2011-12-27T21:47:02Z</time>
      </trkpt>
      <trkpt lat="47.01109" lon="-1.66182">
        <ele>46</ele>
        <time>2011-12-27T21:47:07Z</time>
      </trkpt>
      <trkpt lat="47.01349" lon="-1.66567">
        <ele>45</ele>
        <time>2011-12-27T21:48:42Z</time>
      </trkpt>
      <trkpt lat="47.01365" lon="-1.66547">
        <ele>45</ele>
        <time>2011-12-27T21:48:48Z</time>
      </trkpt>
      <trkpt lat="47.01411" lon="-1.66606">
        <ele>46</ele>
        <time>2011-12-27T21:49:04Z</time>
      </trkpt>
      <trkpt lat="47.01428" lon="-1.66622">
        <ele>46</ele>
        <time>2011-12-27T21:49:10Z</time>
      </trkpt>
      <trkpt lat="47.01442" lon="-1.6663">
        <ele>45</ele>
        <time>2011-12-27T21:49:14Z</time>
      </trkpt>
      <trkpt lat="47.01448" lon="-1.6662">
        <ele>46</ele>
        <time>2011-12-27T21:49:16Z</time>
      </trkpt>
      <trkpt lat="47.01456" lon="-1.66581">
        <ele>46</ele>
        <time>2011-12-27T21:49:23Z</time>
      </trkpt>
      <trkpt lat="47.01463" lon="-1.66557">
        <ele>48</ele>
        <time>2011-12-27T21:49:28Z</time>
      </trkpt>
      <trkpt lat="47.01469" lon="-1.66536">
        <ele>48</ele>
        <time>2011-12-27T21:49:32Z</time>
      </trkpt>
      <trkpt lat="47.01478" lon="-1.66525">
        <ele>48</ele>
        <time>2011-12-27T21:49:35Z</time>
      </trkpt>
      <trkpt lat="47.01521" lon="-1.66545">
        <ele>48</ele>
        <time>2011-12-27T21:49:47Z</time>
      </trkpt>
      <trkpt lat="47.01554" lon="-1.66557">
        <ele>50</ele>
        <time>2011-12-27T21:49:56Z</time>
      </trkpt>
      <trkpt lat="47.01591" lon="-1.66564">
        <ele>50</ele>
        <time>2011-12-27T21:50:06Z</time>
      </trkpt>
      <trkpt lat="47.01619" lon="-1.66571">
        <ele>50</ele>
        <time>2011-12-27T21:50:14Z</time>
      </trkpt>
      <trkpt lat="47.01643" lon="-1.66583">
        <ele>49</ele>
        <time>2011-12-27T21:50:21Z</time>
      </trkpt>
      <trkpt lat="47.01668" lon="-1.66594">
        <ele>49</ele>
        <time>2011-12-27T21:50:28Z</time>
      </trkpt>
      <trkpt lat="47.01684" lon="-1.66598">
        <ele>49</ele>
        <time>2011-12-27T21:50:32Z</time>
      </trkpt>
      <trkpt lat="47.01697" lon="-1.66589">
        <ele>49</ele>
        <time>2011-12-27T21:50:36Z</time>
      </trkpt>
      <trkpt lat="47.01707" lon="-1.66573">
        <ele>49</ele>
        <time>2011-12-27T21:50:40Z</time>
      </trkpt>
      <trkpt lat="47.01723" lon="-1.66557">
        <ele>48</ele>
        <time>2011-12-27T21:50:45Z</time>
      </trkpt>
      <trkpt lat="47.01726" lon="-1.66549">
        <ele>48</ele>
        <time>2011-12-27T21:50:47Z</time>
      </trkpt>
      <trkpt lat="47.01619" lon="-1.66375">
        <ele>51</ele>
        <time>2011-12-27T21:51:29Z</time>
      </trkpt>
      <trkpt lat="47.01542" lon="-1.66266">
        <ele>49</ele>
        <time>2011-12-27T21:51:58Z</time>
      </trkpt>
      <trkpt lat="47.01549" lon="-1.6625">
        <ele>49</ele>
        <time>2011-12-27T21:52:02Z</time>
      </trkpt>
      <trkpt lat="47.01571" lon="-1.66216">
        <ele>49</ele>
        <time>2011-12-27T21:52:10Z</time>
      </trkpt>
      <trkpt lat="47.01592" lon="-1.66175">
        <ele>49</ele>
        <time>2011-12-27T21:52:19Z</time>
      </trkpt>
      <trkpt lat="47.01613" lon="-1.6615">
        <ele>49</ele>
        <time>2011-12-27T21:52:27Z</time>
      </trkpt>
      <trkpt lat="47.01641" lon="-1.66111">
        <ele>48</ele>
        <time>2011-12-27T21:52:37Z</time>
      </trkpt>
      <trkpt lat="47.01657" lon="-1.66083">
        <ele>48</ele>
        <time>2011-12-27T21:52:43Z</time>
      </trkpt>
      <trkpt lat="47.01685" lon="-1.66049">
        <ele>48</ele>
        <time>2011-12-27T21:52:53Z</time>
      </trkpt>
      <trkpt lat="47.01719" lon="-1.66006">
        <ele>46</ele>
        <time>2011-12-27T21:53:05Z</time>
      </trkpt>
      <trkpt lat="47.0175" lon="-1.65973">
        <ele>46</ele>
        <time>2011-12-27T21:53:15Z</time>
      </trkpt>
      <trkpt lat="47.01778" lon="-1.65936">
        <ele>46</ele>
        <time>2011-12-27T21:53:26Z</time>
      </trkpt>
      <trkpt lat="47.01803" lon="-1.65895">
        <ele>43</ele>
        <time>2011-12-27T21:53:36Z</time>
      </trkpt>
      <trkpt lat="47.01846" lon="-1.65845">
        <ele>45</ele>
        <time>2011-12-27T21:53:50Z</time>
      </trkpt>
      <trkpt lat="47.01876" lon="-1.65818">
        <ele>41</ele>
        <time>2011-12-27T21:53:59Z</time>
      </trkpt>
      <trkpt lat="47.01906" lon="-1.65781">
        <ele>43</ele>
        <time>2011-12-27T21:54:10Z</time>
      </trkpt>
      <trkpt lat="47.01931" lon="-1.65754">
        <ele>43</ele>
        <time>2011-12-27T21:54:18Z</time>
      </trkpt>
      <trkpt lat="47.0196" lon="-1.65721">
        <ele>41</ele>
        <time>2011-12-27T21:54:28Z</time>
      </trkpt>
      <trkpt lat="47.01979" lon="-1.65675">
        <ele>40</ele>
        <time>2011-12-27T21:54:38Z</time>
      </trkpt>
      <trkpt lat="47.01998" lon="-1.65649">
        <ele>40</ele>
        <time>2011-12-27T21:54:45Z</time>
      </trkpt>
      <trkpt lat="47.02009" lon="-1.65621">
        <ele>39</ele>
        <time>2011-12-27T21:54:51Z</time>
      </trkpt>
      <trkpt lat="47.02014" lon="-1.656">
        <ele>39</ele>
        <time>2011-12-27T21:54:55Z</time>
      </trkpt>
      <trkpt lat="47.02033" lon="-1.65596">
        <ele>39</ele>
        <time>2011-12-27T21:55:00Z</time>
      </trkpt>
      <trkpt lat="47.02059" lon="-1.65592">
        <ele>41</ele>
        <time>2011-12-27T21:55:07Z</time>
      </trkpt>
      <trkpt lat="47.02094" lon="-1.65583">
        <ele>41</ele>
        <time>2011-12-27T21:55:16Z</time>
      </trkpt>
      <trkpt lat="47.02131" lon="-1.65574">
        <ele>42</ele>
        <time>2011-12-27T21:55:26Z</time>
      </trkpt>
      <trkpt lat="47.02167" lon="-1.65563">
        <ele>42</ele>
        <time>2011-12-27T21:55:36Z</time>
      </trkpt>
      <trkpt lat="47.02209" lon="-1.65543">
        <ele>39</ele>
        <time>2011-12-27T21:55:48Z</time>
      </trkpt>
      <trkpt lat="47.02257" lon="-1.6553">
        <ele>38</ele>
        <time>2011-12-27T21:56:01Z</time>
      </trkpt>
      <trkpt lat="47.02291" lon="-1.65501">
        <ele>38</ele>
        <time>2011-12-27T21:56:11Z</time>
      </trkpt>
      <trkpt lat="47.02322" lon="-1.65479">
        <ele>36</ele>
        <time>2011-12-27T21:56:21Z</time>
      </trkpt>
      <trkpt lat="47.02347" lon="-1.65458">
        <ele>36</ele>
        <time>2011-12-27T21:56:28Z</time>
      </trkpt>
      <trkpt lat="47.02368" lon="-1.65447">
        <ele>36</ele>
        <time>2011-12-27T21:56:34Z</time>
      </trkpt>
      <trkpt lat="47.02395" lon="-1.65435">
        <ele>32</ele>
        <time>2011-12-27T21:56:42Z</time>
      </trkpt>
      <trkpt lat="47.02431" lon="-1.65426">
        <ele>32</ele>
        <time>2011-12-27T21:56:52Z</time>
      </trkpt>
      <trkpt lat="47.02452" lon="-1.65418">
        <ele>32</ele>
        <time>2011-12-27T21:56:57Z</time>
      </trkpt>
      <trkpt lat="47.02471" lon="-1.65417">
        <ele>30</ele>
        <time>2011-12-27T21:57:02Z</time>
      </trkpt>
      <trkpt lat="47.02484" lon="-1.65427">
        <ele>30</ele>
        <time>2011-12-27T21:57:06Z</time>
      </trkpt>
      <trkpt lat="47.02491" lon="-1.65433">
        <ele>30</ele>
        <time>2011-12-27T21:57:09Z</time>
      </trkpt>
      <trkpt lat="47.02512" lon="-1.65421">
        <ele>30</ele>
        <time>2011-12-27T21:57:14Z</time>
      </trkpt>
      <trkpt lat="47.02537" lon="-1.65409">
        <ele>30</ele>
        <time>2011-12-27T21:57:22Z</time>
      </trkpt>
      <trkpt lat="47.02556" lon="-1.65384">
        <ele>30</ele>
        <time>2011-12-27T21:57:28Z</time>
      </trkpt>
      <trkpt lat="47.02579" lon="-1.65364">
        <ele>29</ele>
        <time>2011-12-27T21:57:36Z</time>
      </trkpt>
      <trkpt lat="47.02593" lon="-1.6535">
        <ele>29</ele>
        <time>2011-12-27T21:57:40Z</time>
      </trkpt>
      <trkpt lat="47.02613" lon="-1.6533">
        <ele>29</ele>
        <time>2011-12-27T21:57:47Z</time>
      </trkpt>
      <trkpt lat="47.02629" lon="-1.65308">
        <ele>24</ele>
        <time>2011-12-27T21:57:52Z</time>
      </trkpt>
      <trkpt lat="47.02636" lon="-1.6529">
        <ele>25</ele>
        <time>2011-12-27T21:57:56Z</time>
      </trkpt>
      <trkpt lat="47.02648" lon="-1.65279">
        <ele>25</ele>
        <time>2011-12-27T21:58:00Z</time>
      </trkpt>
      <trkpt lat="47.0266" lon="-1.65277">
        <ele>25</ele>
        <time>2011-12-27T21:58:03Z</time>
      </trkpt>
      <trkpt lat="47.02676" lon="-1.65269">
        <ele>25</ele>
        <time>2011-12-27T21:58:08Z</time>
      </trkpt>
      <trkpt lat="47.02698" lon="-1.65253">
        <ele>25</ele>
        <time>2011-12-27T21:58:14Z</time>
      </trkpt>
      <trkpt lat="47.02714" lon="-1.65251">
        <ele>20</ele>
        <time>2011-12-27T21:58:19Z</time>
      </trkpt>
      <trkpt lat="47.0273" lon="-1.65257">
        <ele>20</ele>
        <time>2011-12-27T21:58:23Z</time>
      </trkpt>
      <trkpt lat="47.02741" lon="-1.65265">
        <ele>20</ele>
        <time>2011-12-27T21:58:26Z</time>
      </trkpt>
      <trkpt lat="47.02716" lon="-1.65339">
        <ele>19</ele>
        <time>2011-12-27T21:58:41Z</time>
      </trkpt>
      <trkpt lat="47.02668" lon="-1.65472">
        <ele>27</ele>
        <time>2011-12-27T21:59:09Z</time>
      </trkpt>
      <trkpt lat="47.02615" lon="-1.65632">
        <ele>30</ele>
        <time>2011-12-27T21:59:41Z</time>
      </trkpt>
      <trkpt lat="47.02595" lon="-1.65699">
        <ele>30</ele>
        <time>2011-12-27T21:59:54Z</time>
      </trkpt>
      <trkpt lat="47.02588" lon="-1.65734">
        <ele>29</ele>
        <time>2011-12-27T22:00:01Z</time>
      </trkpt>
      <trkpt lat="47.02586" lon="-1.65761">
        <ele>29</ele>
        <time>2011-12-27T22:00:06Z</time>
      </trkpt>
      <trkpt lat="47.02589" lon="-1.65789">
        <ele>29</ele>
        <time>2011-12-27T22:00:11Z</time>
      </trkpt>
      <trkpt lat="47.0259" lon="-1.65817">
        <ele>32</ele>
        <time>2011-12-27T22:00:16Z</time>
      </trkpt>
      <trkpt lat="47.02589" lon="-1.65832">
        <ele>32</ele>
        <time>2011-12-27T22:00:19Z</time>
      </trkpt>
      <trkpt lat="47.02589" lon="-1.65853">
        <ele>32</ele>
        <time>2011-12-27T22:00:23Z</time>
      </trkpt>
      <trkpt lat="47.02598" lon="-1.65872">
        <ele>32</ele>
        <time>2011-12-27T22:00:27Z</time>
      </trkpt>
      <trkpt lat="47.02605" lon="-1.6588">
        <ele>31</ele>
        <time>2011-12-27T22:00:29Z</time>
      </trkpt>
      <trkpt lat="47.02614" lon="-1.65891">
        <ele>31</ele>
        <time>2011-12-27T22:00:32Z</time>
      </trkpt>
      <trkpt lat="47.02622" lon="-1.65898">
        <ele>31</ele>
        <time>2011-12-27T22:00:35Z</time>
      </trkpt>
      <trkpt lat="47.02628" lon="-1.65908">
        <ele>27</ele>
        <time>2011-12-27T22:00:37Z</time>
      </trkpt>
      <trkpt lat="47.02637" lon="-1.65919">
        <ele>27</ele>
        <time>2011-12-27T22:00:40Z</time>
      </trkpt>
      <trkpt lat="47.02649" lon="-1.65934">
        <ele>27</ele>
        <time>2011-12-27T22:00:45Z</time>
      </trkpt>
      <trkpt lat="47.02658" lon="-1.6594">
        <ele>27</ele>
        <time>2011-12-27T22:00:47Z</time>
      </trkpt>
      <trkpt lat="47.02667" lon="-1.65945">
        <ele>27</ele>
        <time>2011-12-27T22:00:50Z</time>
      </trkpt>
      <trkpt lat="47.02679" lon="-1.65947">
        <ele>27</ele>
        <time>2011-12-27T22:00:53Z</time>
      </trkpt>
      <trkpt lat="47.02695" lon="-1.65946">
        <ele>27</ele>
        <time>2011-12-27T22:00:57Z</time>
      </trkpt>
      <trkpt lat="47.02717" lon="-1.6594">
        <ele>25</ele>
        <time>2011-12-27T22:01:03Z</time>
      </trkpt>
      <trkpt lat="47.02737" lon="-1.65938">
        <ele>25</ele>
        <time>2011-12-27T22:01:09Z</time>
      </trkpt>
      <trkpt lat="47.02754" lon="-1.65939">
        <ele>25</ele>
        <time>2011-12-27T22:01:13Z</time>
      </trkpt>
      <trkpt lat="47.02769" lon="-1.65939">
        <ele>25</ele>
        <time>2011-12-27T22:01:17Z</time>
      </trkpt>
      <trkpt lat="47.02784" lon="-1.6594">
        <ele>25</ele>
        <time>2011-12-27T22:01:21Z</time>
      </trkpt>
      <trkpt lat="47.0279" lon="-1.65943">
        <ele>25</ele>
        <time>2011-12-27T22:01:23Z</time>
      </trkpt>
      <trkpt lat="47.02804" lon="-1.65955">
        <ele>28</ele>
        <time>2011-12-27T22:01:27Z</time>
      </trkpt>
      <trkpt lat="47.02826" lon="-1.65963">
        <ele>31</ele>
        <time>2011-12-27T22:01:33Z</time>
      </trkpt>
      <trkpt lat="47.02852" lon="-1.65968">
        <ele>31</ele>
        <time>2011-12-27T22:01:40Z</time>
      </trkpt>
      <trkpt lat="47.02881" lon="-1.65976">
        <ele>31</ele>
        <time>2011-12-27T22:01:48Z</time>
      </trkpt>
      <trkpt lat="47.02909" lon="-1.65975">
        <ele>31</ele>
        <time>2011-12-27T22:01:56Z</time>
      </trkpt>
      <trkpt lat="47.02929" lon="-1.65976">
        <ele>31</ele>
        <time>2011-12-27T22:02:01Z</time>
      </trkpt>
      <trkpt lat="47.0294" lon="-1.65977">
        <ele>31</ele>
        <time>2011-12-27T22:02:04Z</time>
      </trkpt>
      <trkpt lat="47.02948" lon="-1.65953">
        <ele>29</ele>
        <time>2011-12-27T22:02:09Z</time>
      </trkpt>
      <trkpt lat="47.02951" lon="-1.65929">
        <ele>29</ele>
        <time>2011-12-27T22:02:13Z</time>
      </trkpt>
      <trkpt lat="47.02958" lon="-1.65903">
        <ele>29</ele>
        <time>2011-12-27T22:02:18Z</time>
      </trkpt>
      <trkpt lat="47.02961" lon="-1.65887">
        <ele>24</ele>
        <time>2011-12-27T22:02:21Z</time>
      </trkpt>
      <trkpt lat="47.02963" lon="-1.65879">
        <ele>24</ele>
        <time>2011-12-27T22:02:23Z</time>
      </trkpt>
      <trkpt lat="47.02971" lon="-1.65876">
        <ele>24</ele>
        <time>2011-12-27T22:02:25Z</time>
      </trkpt>
      <trkpt lat="47.02983" lon="-1.65876">
        <ele>24</ele>
        <time>2011-12-27T22:02:28Z</time>
      </trkpt>
      <trkpt lat="47.02997" lon="-1.65879">
        <ele>24</ele>
        <time>2011-12-27T22:02:32Z</time>
      </trkpt>
      <trkpt lat="47.03017" lon="-1.65881">
        <ele>24</ele>
        <time>2011-12-27T22:02:37Z</time>
      </trkpt>
      <trkpt lat="47.03033" lon="-1.65884">
        <ele>24</ele>
        <time>2011-12-27T22:02:42Z</time>
      </trkpt>
      <trkpt lat="47.03053" lon="-1.65886">
        <ele>21</ele>
        <time>2011-12-27T22:02:47Z</time>
      </trkpt>
      <trkpt lat="47.03069" lon="-1.65889">
        <ele>21</ele>
        <time>2011-12-27T22:02:51Z</time>
      </trkpt>
      <trkpt lat="47.0308" lon="-1.6589">
        <ele>21</ele>
        <time>2011-12-27T22:02:54Z</time>
      </trkpt>
      <trkpt lat="47.03087" lon="-1.65896">
        <ele>21</ele>
        <time>2011-12-27T22:02:56Z</time>
      </trkpt>
      <trkpt lat="47.03087" lon="-1.65908">
        <ele>21</ele>
        <time>2011-12-27T22:02:59Z</time>
      </trkpt>
      <trkpt lat="47.03091" lon="-1.65927">
        <ele>21</ele>
        <time>2011-12-27T22:03:02Z</time>
      </trkpt>
      <trkpt lat="47.03095" lon="-1.65941">
        <ele>21</ele>
        <time>2011-12-27T22:03:05Z</time>
      </trkpt>
      <trkpt lat="47.031" lon="-1.6595">
        <ele>21</ele>
        <time>2011-12-27T22:03:07Z</time>
      </trkpt>
      <trkpt lat="47.03131" lon="-1.65942">
        <ele>18</ele>
        <time>2011-12-27T22:03:16Z</time>
      </trkpt>
      <trkpt lat="47.03161" lon="-1.65931">
        <ele>18</ele>
        <time>2011-12-27T22:03:24Z</time>
      </trkpt>
      <trkpt lat="47.03193" lon="-1.65924">
        <ele>18</ele>
        <time>2011-12-27T22:03:33Z</time>
      </trkpt>
      <trkpt lat="47.0322" lon="-1.65912">
        <ele>14</ele>
        <time>2011-12-27T22:03:40Z</time>
      </trkpt>
      <trkpt lat="47.03243" lon="-1.65903">
        <ele>14</ele>
        <time>2011-12-27T22:03:46Z</time>
      </trkpt>
      <trkpt lat="47.03267" lon="-1.65899">
        <ele>14</ele>
        <time>2011-12-27T22:03:53Z</time>
      </trkpt>
      <trkpt lat="47.03279" lon="-1.65898">
        <ele>14</ele>
        <time>2011-12-27T22:03:56Z</time>
      </trkpt>
      <trkpt lat="47.03285" lon="-1.65899">
        <ele>14</ele>
        <time>2011-12-27T22:03:58Z</time>
      </trkpt>
      <trkpt lat="47.03283" lon="-1.65926">
        <ele>14</ele>
        <time>2011-12-27T22:04:02Z</time>
      </trkpt>
      <trkpt lat="47.03279" lon="-1.65949">
        <ele>14</ele>
        <time>2011-12-27T22:04:07Z</time>
      </trkpt>
      <trkpt lat="47.03205" lon="-1.66152">
        <ele>19</ele>
        <time>2011-12-27T22:04:48Z</time>
      </trkpt>
      <trkpt lat="47.03181" lon="-1.66211">
        <ele>20</ele>
        <time>2011-12-27T22:05:01Z</time>
      </trkpt>
      <trkpt lat="47.03167" lon="-1.66238">
        <ele>20</ele>
        <time>2011-12-27T22:05:07Z</time>
      </trkpt>
      <trkpt lat="47.03158" lon="-1.66247">
        <ele>20</ele>
        <time>2011-12-27T22:05:10Z</time>
      </trkpt>
      <trkpt lat="47.0315" lon="-1.66252">
        <ele>20</ele>
        <time>2011-12-27T22:05:13Z</time>
      </trkpt>
      <trkpt lat="47.03155" lon="-1.66256">
        <ele>20</ele>
        <time>2011-12-27T22:05:14Z</time>
      </trkpt>
      <trkpt lat="47.03161" lon="-1.66262">
        <ele>20</ele>
        <time>2011-12-27T22:05:16Z</time>
      </trkpt>
      <trkpt lat="47.03159" lon="-1.66269">
        <ele>20</ele>
        <time>2011-12-27T22:05:17Z</time>
      </trkpt>
      <trkpt lat="47.03151" lon="-1.66286">
        <ele>20</ele>
        <time>2011-12-27T22:05:21Z</time>
      </trkpt>
      <trkpt lat="47.03143" lon="-1.66303">
        <ele>23</ele>
        <time>2011-12-27T22:05:25Z</time>
      </trkpt>
      <trkpt lat="47.03135" lon="-1.66318">
        <ele>23</ele>
        <time>2011-12-27T22:05:29Z</time>
      </trkpt>
      <trkpt lat="47.03125" lon="-1.66336">
        <ele>23</ele>
        <time>2011-12-27T22:05:33Z</time>
      </trkpt>
      <trkpt lat="47.03114" lon="-1.66355">
        <ele>23</ele>
        <time>2011-12-27T22:05:37Z</time>
      </trkpt>
      <trkpt lat="47.031" lon="-1.66374">
        <ele>23</ele>
        <time>2011-12-27T22:05:42Z</time>
      </trkpt>
      <trkpt lat="47.03085" lon="-1.66398">
        <ele>24</ele>
        <time>2011-12-27T22:05:48Z</time>
      </trkpt>
      <trkpt lat="47.03072" lon="-1.66414">
        <ele>24</ele>
        <time>2011-12-27T22:05:53Z</time>
      </trkpt>
      <trkpt lat="47.03064" lon="-1.66426">
        <ele>24</ele>
        <time>2011-12-27T22:05:56Z</time>
      </trkpt>
      <trkpt lat="47.03039" lon="-1.66461">
        <ele>27</ele>
        <time>2011-12-27T22:06:05Z</time>
      </trkpt>
      <trkpt lat="47.0302" lon="-1.66484">
        <ele>27</ele>
        <time>2011-12-27T22:06:12Z</time>
      </trkpt>
      <trkpt lat="47.02986" lon="-1.66519">
        <ele>27</ele>
        <time>2011-12-27T22:06:23Z</time>
      </trkpt>
      <trkpt lat="47.02958" lon="-1.66542">
        <ele>34</ele>
        <time>2011-12-27T22:06:31Z</time>
      </trkpt>
      <trkpt lat="47.02932" lon="-1.66557">
        <ele>34</ele>
        <time>2011-12-27T22:06:39Z</time>
      </trkpt>
      <trkpt lat="47.02896" lon="-1.66584">
        <ele>34</ele>
        <time>2011-12-27T22:06:50Z</time>
      </trkpt>
      <trkpt lat="47.02864" lon="-1.66608">
        <ele>38</ele>
        <time>2011-12-27T22:06:59Z</time>
      </trkpt>
      <trkpt lat="47.02834" lon="-1.6663">
        <ele>39</ele>
        <time>2011-12-27T22:07:08Z</time>
      </trkpt>
      <trkpt lat="47.02811" lon="-1.66649">
        <ele>39</ele>
        <time>2011-12-27T22:07:15Z</time>
      </trkpt>
      <trkpt lat="47.02787" lon="-1.66666">
        <ele>40</ele>
        <time>2011-12-27T22:07:22Z</time>
      </trkpt>
      <trkpt lat="47.0277" lon="-1.66679">
        <ele>40</ele>
        <time>2011-12-27T22:07:27Z</time>
      </trkpt>
      <trkpt lat="47.02758" lon="-1.66686">
        <ele>40</ele>
        <time>2011-12-27T22:07:31Z</time>
      </trkpt>
      <trkpt lat="47.02697" lon="-1.66748">
        <ele>40</ele>
        <time>2011-12-27T22:07:51Z</time>
      </trkpt>
      <trkpt lat="47.02657" lon="-1.66788">
        <ele>40</ele>
        <time>2011-12-27T22:08:03Z</time>
      </trkpt>
      <trkpt lat="47.02605" lon="-1.66851">
        <ele>40</ele>
        <time>2011-12-27T22:08:21Z</time>
      </trkpt>
      <trkpt lat="47.02563" lon="-1.66909">
        <ele>40</ele>
        <time>2011-12-27T22:08:37Z</time>
      </trkpt>
      <trkpt lat="47.02535" lon="-1.66956">
        <ele>40</ele>
        <time>2011-12-27T22:08:48Z</time>
      </trkpt>
      <trkpt lat="47.02515" lon="-1.66969">
        <ele>41</ele>
        <time>2011-12-27T22:08:54Z</time>
      </trkpt>
      <trkpt lat="47.02487" lon="-1.66987">
        <ele>41</ele>
        <time>2011-12-27T22:09:02Z</time>
      </trkpt>
      <trkpt lat="47.02464" lon="-1.66993">
        <ele>41</ele>
        <time>2011-12-27T22:09:08Z</time>
      </trkpt>
      <trkpt lat="47.02446" lon="-1.67008">
        <ele>43</ele>
        <time>2011-12-27T22:09:14Z</time>
      </trkpt>
      <trkpt lat="47.02423" lon="-1.67015">
        <ele>43</ele>
        <time>2011-12-27T22:09:20Z</time>
      </trkpt>
      <trkpt lat="47.02371" lon="-1.67046">
        <ele>43</ele>
        <time>2011-12-27T22:09:35Z</time>
      </trkpt>
      <trkpt lat="47.0233" lon="-1.67071">
        <ele>43</ele>
        <time>2011-12-27T22:09:47Z</time>
      </trkpt>
      <trkpt lat="47.0229" lon="-1.67108">
        <ele>43</ele>
        <time>2011-12-27T22:10:00Z</time>
      </trkpt>
      <trkpt lat="47.02252" lon="-1.67148">
        <ele>44</ele>
        <time>2011-12-27T22:10:12Z</time>
      </trkpt>
      <trkpt lat="47.02216" lon="-1.67179">
        <ele>44</ele>
        <time>2011-12-27T22:10:23Z</time>
      </trkpt>
      <trkpt lat="47.02186" lon="-1.67204">
        <ele>46</ele>
        <time>2011-12-27T22:10:33Z</time>
      </trkpt>
      <trkpt lat="47.02165" lon="-1.67224">
        <ele>46</ele>
        <time>2011-12-27T22:10:39Z</time>
      </trkpt>
      <trkpt lat="47.02287" lon="-1.67415">
        <ele>45</ele>
        <time>2011-12-27T22:11:27Z</time>
      </trkpt>
      <trkpt lat="47.02366" lon="-1.67539">
        <ele>43</ele>
        <time>2011-12-27T22:11:58Z</time>
      </trkpt>
      <trkpt lat="47.02377" lon="-1.6756">
        <ele>43</ele>
        <time>2011-12-27T22:12:03Z</time>
      </trkpt>
      <trkpt lat="47.02393" lon="-1.67583">
        <ele>43</ele>
        <time>2011-12-27T22:12:09Z</time>
      </trkpt>
      <trkpt lat="47.024" lon="-1.67594">
        <ele>43</ele>
        <time>2011-12-27T22:12:11Z</time>
      </trkpt>
      <trkpt lat="47.02405" lon="-1.67604">
        <ele>43</ele>
        <time>2011-12-27T22:12:14Z</time>
      </trkpt>
      <trkpt lat="47.02416" lon="-1.67618">
        <ele>43</ele>
        <time>2011-12-27T22:12:17Z</time>
      </trkpt>
      <trkpt lat="47.02417" lon="-1.67628">
        <ele>43</ele>
        <time>2011-12-27T22:12:19Z</time>
      </trkpt>
      <trkpt lat="47.02412" lon="-1.67632">
        <ele>43</ele>
        <time>2011-12-27T22:12:21Z</time>
      </trkpt>
      <trkpt lat="47.02403" lon="-1.67617">
        <ele>43</ele>
        <time>2011-12-27T22:12:24Z</time>
      </trkpt>
      <trkpt lat="47.02393" lon="-1.67602">
        <ele>43</ele>
        <time>2011-12-27T22:12:28Z</time>
      </trkpt>
      <trkpt lat="47.02386" lon="-1.67591">
        <ele>43</ele>
        <time>2011-12-27T22:12:31Z</time>
      </trkpt>
      <trkpt lat="47.02376" lon="-1.6758">
        <ele>43</ele>
        <time>2011-12-27T22:12:34Z</time>
      </trkpt>
      <trkpt lat="47.02371" lon="-1.67571">
        <ele>44</ele>
        <time>2011-12-27T22:12:36Z</time>
      </trkpt>
      <trkpt lat="47.02365" lon="-1.67577">
        <ele>44</ele>
        <time>2011-12-27T22:12:38Z</time>
      </trkpt>
      <trkpt lat="47.02366" lon="-1.67592">
        <ele>44</ele>
        <time>2011-12-27T22:12:41Z</time>
      </trkpt>
      <trkpt lat="47.02371" lon="-1.676">
        <ele>44</ele>
        <time>2011-12-27T22:12:43Z</time>
      </trkpt>
      <trkpt lat="47.02378" lon="-1.67608">
        <ele>43</ele>
        <time>2011-12-27T22:12:45Z</time>
      </trkpt>
      <trkpt lat="47.02385" lon="-1.67617">
        <ele>43</ele>
        <time>2011-12-27T22:12:48Z</time>
      </trkpt>
      <trkpt lat="47.024" lon="-1.67632">
        <ele>43</ele>
        <time>2011-12-27T22:12:53Z</time>
      </trkpt>
      <trkpt lat="47.02405" lon="-1.67636">
        <ele>43</ele>
        <time>2011-12-27T22:12:54Z</time>
      </trkpt>
      <trkpt lat="47.02415" lon="-1.67663">
        <ele>43</ele>
        <time>2011-12-27T22:13:00Z</time>
      </trkpt>
      <trkpt lat="47.02431" lon="-1.6769">
        <ele>43</ele>
        <time>2011-12-27T22:13:06Z</time>
      </trkpt>
      <trkpt lat="47.0245" lon="-1.67714">
        <ele>43</ele>
        <time>2011-12-27T22:13:13Z</time>
      </trkpt>
      <trkpt lat="47.02467" lon="-1.67736">
        <ele>43</ele>
        <time>2011-12-27T22:13:19Z</time>
      </trkpt>
      <trkpt lat="47.02485" lon="-1.67757">
        <ele>43</ele>
        <time>2011-12-27T22:13:25Z</time>
      </trkpt>
      <trkpt lat="47.02487" lon="-1.67769">
        <ele>43</ele>
        <time>2011-12-27T22:13:28Z</time>
      </trkpt>
      <trkpt lat="47.02491" lon="-1.67777">
        <ele>43</ele>
        <time>2011-12-27T22:13:29Z</time>
      </trkpt>
      <trkpt lat="47.02496" lon="-1.67785">
        <ele>43</ele>
        <time>2011-12-27T22:13:31Z</time>
      </trkpt>
      <trkpt lat="47.02504" lon="-1.67795">
        <ele>44</ele>
        <time>2011-12-27T22:13:34Z</time>
      </trkpt>
      <trkpt lat="47.02509" lon="-1.67796">
        <ele>44</ele>
        <time>2011-12-27T22:13:35Z</time>
      </trkpt>
      <trkpt lat="47.02513" lon="-1.67796">
        <ele>44</ele>
        <time>2011-12-27T22:13:36Z</time>
      </trkpt>
      <trkpt lat="47.02515" lon="-1.67802">
        <ele>44</ele>
        <time>2011-12-27T22:13:38Z</time>
      </trkpt>
      <trkpt lat="47.02514" lon="-1.6781">
        <ele>44</ele>
        <time>2011-12-27T22:13:39Z</time>
      </trkpt>
      <trkpt lat="47.02529" lon="-1.67829">
        <ele>44</ele>
        <time>2011-12-27T22:13:44Z</time>
      </trkpt>
      <trkpt lat="47.02534" lon="-1.67835">
        <ele>44</ele>
        <time>2011-12-27T22:13:46Z</time>
      </trkpt>
      <trkpt lat="47.02522" lon="-1.67821">
        <ele>44</ele>
        <time>2011-12-27T22:13:50Z</time>
      </trkpt>
      <trkpt lat="47.0254" lon="-1.67837">
        <ele>44</ele>
        <time>2011-12-27T22:13:56Z</time>
      </trkpt>
      <trkpt lat="47.02545" lon="-1.67833">
        <ele>43</ele>
        <time>2011-12-27T22:13:58Z</time>
      </trkpt>
      <trkpt lat="47.02551" lon="-1.67834">
        <ele>43</ele>
        <time>2011-12-27T22:13:59Z</time>
      </trkpt>
      <trkpt lat="47.02586" lon="-1.67882">
        <ele>43</ele>
        <time>2011-12-27T22:14:12Z</time>
      </trkpt>
      <trkpt lat="47.02637" lon="-1.67746">
        <ele>42</ele>
        <time>2011-12-27T22:14:40Z</time>
      </trkpt>
      <trkpt lat="47.027" lon="-1.67786">
        <ele>42</ele>
        <time>2011-12-27T22:14:58Z</time>
      </trkpt>
      <trkpt lat="47.02752" lon="-1.67815">
        <ele>43</ele>
        <time>2011-12-27T22:15:13Z</time>
      </trkpt>
      <trkpt lat="47.02775" lon="-1.67817">
        <ele>43</ele>
        <time>2011-12-27T22:15:19Z</time>
      </trkpt>
      <trkpt lat="47.02791" lon="-1.67817">
        <ele>43</ele>
        <time>2011-12-27T22:15:24Z</time>
      </trkpt>
      <trkpt lat="47.0286" lon="-1.67808">
        <ele>43</ele>
        <time>2011-12-27T22:15:42Z</time>
      </trkpt>
      <trkpt lat="47.02895" lon="-1.67802">
        <ele>42</ele>
        <time>2011-12-27T22:15:51Z</time>
      </trkpt>
      <trkpt lat="47.02934" lon="-1.67796">
        <ele>42</ele>
        <time>2011-12-27T22:16:02Z</time>
      </trkpt>
      <trkpt lat="47.02963" lon="-1.67797">
        <ele>42</ele>
        <time>2011-12-27T22:16:10Z</time>
      </trkpt>
      <trkpt lat="47.02988" lon="-1.67805">
        <ele>42</ele>
        <time>2011-12-27T22:16:16Z</time>
      </trkpt>
      <trkpt lat="47.03018" lon="-1.67826">
        <ele>42</ele>
        <time>2011-12-27T22:16:25Z</time>
      </trkpt>
      <trkpt lat="47.03033" lon="-1.67844">
        <ele>42</ele>
        <time>2011-12-27T22:16:30Z</time>
      </trkpt>
      <trkpt lat="47.03047" lon="-1.67858">
        <ele>38</ele>
        <time>2011-12-27T22:16:35Z</time>
      </trkpt>
      <trkpt lat="47.03057" lon="-1.6785">
        <ele>38</ele>
        <time>2011-12-27T22:16:38Z</time>
      </trkpt>
      <trkpt lat="47.03071" lon="-1.67832">
        <ele>38</ele>
        <time>2011-12-27T22:16:43Z</time>
      </trkpt>
      <trkpt lat="47.03077" lon="-1.67811">
        <ele>38</ele>
        <time>2011-12-27T22:16:47Z</time>
      </trkpt>
      <trkpt lat="47.03089" lon="-1.6776">
        <ele>38</ele>
        <time>2011-12-27T22:16:57Z</time>
      </trkpt>
      <trkpt lat="47.03097" lon="-1.67727">
        <ele>38</ele>
        <time>2011-12-27T22:17:03Z</time>
      </trkpt>
      <trkpt lat="47.03103" lon="-1.67686">
        <ele>37</ele>
        <time>2011-12-27T22:17:11Z</time>
      </trkpt>
      <trkpt lat="47.03113" lon="-1.67649">
        <ele>37</ele>
        <time>2011-12-27T22:17:18Z</time>
      </trkpt>
      <trkpt lat="47.03118" lon="-1.67616">
        <ele>35</ele>
        <time>2011-12-27T22:17:24Z</time>
      </trkpt>
      <trkpt lat="47.03127" lon="-1.67585">
        <ele>30</ele>
        <time>2011-12-27T22:17:30Z</time>
      </trkpt>
      <trkpt lat="47.03135" lon="-1.67575">
        <ele>30</ele>
        <time>2011-12-27T22:17:33Z</time>
      </trkpt>
      <trkpt lat="47.03159" lon="-1.6755">
        <ele>30</ele>
        <time>2011-12-27T22:17:41Z</time>
      </trkpt>
      <trkpt lat="47.03181" lon="-1.67522">
        <ele>30</ele>
        <time>2011-12-27T22:17:49Z</time>
      </trkpt>
      <trkpt lat="47.03197" lon="-1.67498">
        <ele>30</ele>
        <time>2011-12-27T22:17:55Z</time>
      </trkpt>
      <trkpt lat="47.03214" lon="-1.67471">
        <ele>29</ele>
        <time>2011-12-27T22:18:02Z</time>
      </trkpt>
      <trkpt lat="47.03231" lon="-1.67447">
        <ele>30</ele>
        <time>2011-12-27T22:18:08Z</time>
      </trkpt>
      <trkpt lat="47.03242" lon="-1.67424">
        <ele>30</ele>
        <time>2011-12-27T22:18:13Z</time>
      </trkpt>
      <trkpt lat="47.03257" lon="-1.67404">
        <ele>30</ele>
        <time>2011-12-27T22:18:18Z</time>
      </trkpt>
      <trkpt lat="47.03271" lon="-1.6737">
        <ele>31</ele>
        <time>2011-12-27T22:18:26Z</time>
      </trkpt>
      <trkpt lat="47.03281" lon="-1.67346">
        <ele>31</ele>
        <time>2011-12-27T22:18:31Z</time>
      </trkpt>
      <trkpt lat="47.03288" lon="-1.67322">
        <ele>31</ele>
        <time>2011-12-27T22:18:36Z</time>
      </trkpt>
      <trkpt lat="47.03296" lon="-1.67293">
        <ele>27</ele>
        <time>2011-12-27T22:18:41Z</time>
      </trkpt>
      <trkpt lat="47.03302" lon="-1.67263">
        <ele>27</ele>
        <time>2011-12-27T22:18:47Z</time>
      </trkpt>
      <trkpt lat="47.03302" lon="-1.67227">
        <ele>27</ele>
        <time>2011-12-27T22:18:53Z</time>
      </trkpt>
      <trkpt lat="47.03299" lon="-1.67201">
        <ele>25</ele>
        <time>2011-12-27T22:18:58Z</time>
      </trkpt>
      <trkpt lat="47.03302" lon="-1.67179">
        <ele>25</ele>
        <time>2011-12-27T22:19:02Z</time>
      </trkpt>
      <trkpt lat="47.03307" lon="-1.67162">
        <ele>25</ele>
        <time>2011-12-27T22:19:06Z</time>
      </trkpt>
      <trkpt lat="47.03318" lon="-1.67147">
        <ele>25</ele>
        <time>2011-12-27T22:19:10Z</time>
      </trkpt>
      <trkpt lat="47.03328" lon="-1.67135">
        <ele>25</ele>
        <time>2011-12-27T22:19:13Z</time>
      </trkpt>
      <trkpt lat="47.03338" lon="-1.67122">
        <ele>24</ele>
        <time>2011-12-27T22:19:17Z</time>
      </trkpt>
      <trkpt lat="47.0335" lon="-1.67113">
        <ele>24</ele>
        <time>2011-12-27T22:19:20Z</time>
      </trkpt>
      <trkpt lat="47.03356" lon="-1.67098">
        <ele>24</ele>
        <time>2011-12-27T22:19:23Z</time>
      </trkpt>
      <trkpt lat="47.03361" lon="-1.67083">
        <ele>24</ele>
        <time>2011-12-27T22:19:26Z</time>
      </trkpt>
      <trkpt lat="47.03361" lon="-1.67066">
        <ele>24</ele>
        <time>2011-12-27T22:19:30Z</time>
      </trkpt>
      <trkpt lat="47.03359" lon="-1.67036">
        <ele>21</ele>
        <time>2011-12-27T22:19:35Z</time>
      </trkpt>
      <trkpt lat="47.03358" lon="-1.67016">
        <ele>21</ele>
        <time>2011-12-27T22:19:39Z</time>
      </trkpt>
      <trkpt lat="47.03355" lon="-1.66997">
        <ele>21</ele>
        <time>2011-12-27T22:19:42Z</time>
      </trkpt>
      <trkpt lat="47.03354" lon="-1.66981">
        <ele>21</ele>
        <time>2011-12-27T22:19:45Z</time>
      </trkpt>
      <trkpt lat="47.03354" lon="-1.66969">
        <ele>21</ele>
        <time>2011-12-27T22:19:47Z</time>
      </trkpt>
      <trkpt lat="47.03359" lon="-1.66956">
        <ele>19</ele>
        <time>2011-12-27T22:19:50Z</time>
      </trkpt>
      <trkpt lat="47.03368" lon="-1.66944">
        <ele>19</ele>
        <time>2011-12-27T22:19:53Z</time>
      </trkpt>
      <trkpt lat="47.03379" lon="-1.66933">
        <ele>18</ele>
        <time>2011-12-27T22:19:57Z</time>
      </trkpt>
      <trkpt lat="47.03389" lon="-1.66925">
        <ele>18</ele>
        <time>2011-12-27T22:20:00Z</time>
      </trkpt>
      <trkpt lat="47.03404" lon="-1.66926">
        <ele>18</ele>
        <time>2011-12-27T22:20:04Z</time>
      </trkpt>
      <trkpt lat="47.03427" lon="-1.66932">
        <ele>18</ele>
        <time>2011-12-27T22:20:10Z</time>
      </trkpt>
      <trkpt lat="47.03447" lon="-1.66936">
        <ele>18</ele>
        <time>2011-12-27T22:20:15Z</time>
      </trkpt>
      <trkpt lat="47.03466" lon="-1.6694">
        <ele>15</ele>
        <time>2011-12-27T22:20:21Z</time>
      </trkpt>
      <trkpt lat="47.03478" lon="-1.66943">
        <ele>15</ele>
        <time>2011-12-27T22:20:24Z</time>
      </trkpt>
      <trkpt lat="47.03482" lon="-1.66911">
        <ele>15</ele>
        <time>2011-12-27T22:20:30Z</time>
      </trkpt>
      <trkpt lat="47.03482" lon="-1.6688">
        <ele>15</ele>
        <time>2011-12-27T22:20:35Z</time>
      </trkpt>
      <trkpt lat="47.03482" lon="-1.66863">
        <ele>16</ele>
        <time>2011-12-27T22:20:38Z</time>
      </trkpt>
      <trkpt lat="47.03446" lon="-1.66859">
        <ele>18</ele>
        <time>2011-12-27T22:20:48Z</time>
      </trkpt>
      <trkpt lat="47.03401" lon="-1.66856">
        <ele>18</ele>
        <time>2011-12-27T22:21:00Z</time>
      </trkpt>
      <trkpt lat="47.03368" lon="-1.66859">
        <ele>19</ele>
        <time>2011-12-27T22:21:09Z</time>
      </trkpt>
      <trkpt lat="47.03347" lon="-1.66861">
        <ele>19</ele>
        <time>2011-12-27T22:21:14Z</time>
      </trkpt>
      <trkpt lat="47.03295" lon="-1.66866">
        <ele>19</ele>
        <time>2011-12-27T22:21:28Z</time>
      </trkpt>
      <trkpt lat="47.03267" lon="-1.66871">
        <ele>21</ele>
        <time>2011-12-27T22:21:36Z</time>
      </trkpt>
      <trkpt lat="47.03243" lon="-1.66885">
        <ele>22</ele>
        <time>2011-12-27T22:21:43Z</time>
      </trkpt>
      <trkpt lat="47.03222" lon="-1.66895">
        <ele>22</ele>
        <time>2011-12-27T22:21:49Z</time>
      </trkpt>
      <trkpt lat="47.03201" lon="-1.66905">
        <ele>28</ele>
        <time>2011-12-27T22:21:55Z</time>
      </trkpt>
      <trkpt lat="47.03187" lon="-1.66914">
        <ele>28</ele>
        <time>2011-12-27T22:21:59Z</time>
      </trkpt>
      <trkpt lat="47.0317" lon="-1.66919">
        <ele>28</ele>
        <time>2011-12-27T22:22:03Z</time>
      </trkpt>
      <trkpt lat="47.0312" lon="-1.66914">
        <ele>33</ele>
        <time>2011-12-27T22:22:17Z</time>
      </trkpt>
      <trkpt lat="47.03101" lon="-1.66913">
        <ele>33</ele>
        <time>2011-12-27T22:22:22Z</time>
      </trkpt>
      <trkpt lat="47.03079" lon="-1.66913">
        <ele>33</ele>
        <time>2011-12-27T22:22:28Z</time>
      </trkpt>
      <trkpt lat="47.03063" lon="-1.6692">
        <ele>33</ele>
        <time>2011-12-27T22:22:32Z</time>
      </trkpt>
      <trkpt lat="47.0305" lon="-1.66928">
        <ele>33</ele>
        <time>2011-12-27T22:22:36Z</time>
      </trkpt>
      <trkpt lat="47.03041" lon="-1.66933">
        <ele>35</ele>
        <time>2011-12-27T22:22:38Z</time>
      </trkpt>
      <trkpt lat="47.03028" lon="-1.66945">
        <ele>35</ele>
        <time>2011-12-27T22:22:43Z</time>
      </trkpt>
      <trkpt lat="47.0302" lon="-1.66947">
        <ele>35</ele>
        <time>2011-12-27T22:22:45Z</time>
      </trkpt>
      <trkpt lat="47.03023" lon="-1.66934">
        <ele>35</ele>
        <time>2011-12-27T22:22:47Z</time>
      </trkpt>
      <trkpt lat="47.03022" lon="-1.66924">
        <ele>35</ele>
        <time>2011-12-27T22:22:49Z</time>
      </trkpt>
      <trkpt lat="47.03025" lon="-1.66915">
        <ele>35</ele>
        <time>2011-12-27T22:22:51Z</time>
      </trkpt>
      <trkpt lat="47.03027" lon="-1.66906">
        <ele>35</ele>
        <time>2011-12-27T22:22:52Z</time>
      </trkpt>
      <trkpt lat="47.03028" lon="-1.66888">
        <ele>35</ele>
        <time>2011-12-27T22:22:56Z</time>
      </trkpt>
      <trkpt lat="47.03029" lon="-1.66875">
        <ele>37</ele>
        <time>2011-12-27T22:22:58Z</time>
      </trkpt>
      <trkpt lat="47.03037" lon="-1.66867">
        <ele>37</ele>
        <time>2011-12-27T22:23:00Z</time>
      </trkpt>
      <trkpt lat="47.03047" lon="-1.66861">
        <ele>33</ele>
        <time>2011-12-27T22:23:03Z</time>
      </trkpt>
      <trkpt lat="47.03056" lon="-1.66853">
        <ele>33</ele>
        <time>2011-12-27T22:23:06Z</time>
      </trkpt>
      <trkpt lat="47.03068" lon="-1.66842">
        <ele>33</ele>
        <time>2011-12-27T22:23:10Z</time>
      </trkpt>
      <trkpt lat="47.03078" lon="-1.66831">
        <ele>33</ele>
        <time>2011-12-27T22:23:13Z</time>
      </trkpt>
      <trkpt lat="47.03085" lon="-1.66822">
        <ele>33</ele>
        <time>2011-12-27T22:23:16Z</time>
      </trkpt>
      <trkpt lat="47.03091" lon="-1.66815">
        <ele>33</ele>
        <time>2011-12-27T22:23:18Z</time>
      </trkpt>
      <trkpt lat="47.03098" lon="-1.66804">
        <ele>33</ele>
        <time>2011-12-27T22:23:21Z</time>
      </trkpt>
      <trkpt lat="47.03104" lon="-1.66797">
        <ele>33</ele>
        <time>2011-12-27T22:23:23Z</time>
      </trkpt>
      <trkpt lat="47.03088" lon="-1.66755">
        <ele>30</ele>
        <time>2011-12-27T22:23:32Z</time>
      </trkpt>
      <trkpt lat="47.03079" lon="-1.66727">
        <ele>30</ele>
        <time>2011-12-27T22:23:37Z</time>
      </trkpt>
      <trkpt lat="47.03073" lon="-1.66707">
        <ele>28</ele>
        <time>2011-12-27T22:23:41Z</time>
      </trkpt>
      <trkpt lat="47.03071" lon="-1.667">
        <ele>28</ele>
        <time>2011-12-27T22:23:42Z</time>
      </trkpt>
      <trkpt lat="47.03066" lon="-1.66684">
        <ele>28</ele>
        <time>2011-12-27T22:23:46Z</time>
      </trkpt>
      <trkpt lat="47.0306" lon="-1.66661">
        <ele>28</ele>
        <time>2011-12-27T22:23:50Z</time>
      </trkpt>
      <trkpt lat="47.03055" lon="-1.66644">
        <ele>28</ele>
        <time>2011-12-27T22:23:54Z</time>
      </trkpt>
      <trkpt lat="47.03063" lon="-1.66642">
        <ele>28</ele>
        <time>2011-12-27T22:23:56Z</time>
      </trkpt>
      <trkpt lat="47.0307" lon="-1.66634">
        <ele>28</ele>
        <time>2011-12-27T22:23:58Z</time>
      </trkpt>
      <trkpt lat="47.03078" lon="-1.66632">
        <ele>28</ele>
        <time>2011-12-27T22:24:00Z</time>
      </trkpt>
      <trkpt lat="47.0309" lon="-1.66627">
        <ele>28</ele>
        <time>2011-12-27T22:24:03Z</time>
      </trkpt>
      <trkpt lat="47.03094" lon="-1.66624">
        <ele>27</ele>
        <time>2011-12-27T22:24:05Z</time>
      </trkpt>
      <trkpt lat="47.03104" lon="-1.66621">
        <ele>27</ele>
        <time>2011-12-27T22:24:07Z</time>
      </trkpt>
      <trkpt lat="47.0311" lon="-1.66615">
        <ele>27</ele>
        <time>2011-12-27T22:24:10Z</time>
      </trkpt>
      <trkpt lat="47.03116" lon="-1.6661">
        <ele>27</ele>
        <time>2011-12-27T22:24:11Z</time>
      </trkpt>
      <trkpt lat="47.03119" lon="-1.66598">
        <ele>27</ele>
        <time>2011-12-27T22:24:14Z</time>
      </trkpt>
      <trkpt lat="47.03116" lon="-1.6659">
        <ele>27</ele>
        <time>2011-12-27T22:24:15Z</time>
      </trkpt>
      <trkpt lat="47.03109" lon="-1.66568">
        <ele>27</ele>
        <time>2011-12-27T22:24:20Z</time>
      </trkpt>
      <trkpt lat="47.03103" lon="-1.66559">
        <ele>27</ele>
        <time>2011-12-27T22:24:22Z</time>
      </trkpt>
      <trkpt lat="47.03097" lon="-1.66542">
        <ele>27</ele>
        <time>2011-12-27T22:24:25Z</time>
      </trkpt>
      <trkpt lat="47.03093" lon="-1.66532">
        <ele>25</ele>
        <time>2011-12-27T22:24:28Z</time>
      </trkpt>
      <trkpt lat="47.03084" lon="-1.66524">
        <ele>25</ele>
        <time>2011-12-27T22:24:30Z</time>
      </trkpt>
      <trkpt lat="47.031" lon="-1.66485">
        <ele>25</ele>
        <time>2011-12-27T22:24:39Z</time>
      </trkpt>
      <trkpt lat="47.03112" lon="-1.66465">
        <ele>25</ele>
        <time>2011-12-27T22:24:43Z</time>
      </trkpt>
      <trkpt lat="47.03144" lon="-1.66415">
        <ele>24</ele>
        <time>2011-12-27T22:24:56Z</time>
      </trkpt>
      <trkpt lat="47.03169" lon="-1.66383">
        <ele>24</ele>
        <time>2011-12-27T22:25:05Z</time>
      </trkpt>
      <trkpt lat="47.03189" lon="-1.66344">
        <ele>23</ele>
        <time>2011-12-27T22:25:13Z</time>
      </trkpt>
      <trkpt lat="47.03208" lon="-1.66297">
        <ele>23</ele>
        <time>2011-12-27T22:25:23Z</time>
      </trkpt>
      <trkpt lat="47.03227" lon="-1.6625">
        <ele>22</ele>
        <time>2011-12-27T22:25:33Z</time>
      </trkpt>
      <trkpt lat="47.03277" lon="-1.66134">
        <ele>20</ele>
        <time>2011-12-27T22:25:58Z</time>
      </trkpt>
      <trkpt lat="47.03295" lon="-1.66111">
        <ele>20</ele>
        <time>2011-12-27T22:26:05Z</time>
      </trkpt>
      <trkpt lat="47.03317" lon="-1.66104">
        <ele>20</ele>
        <time>2011-12-27T22:26:11Z</time>
      </trkpt>
      <trkpt lat="47.03336" lon="-1.66106">
        <ele>20</ele>
        <time>2011-12-27T22:26:16Z</time>
      </trkpt>
      <trkpt lat="47.03355" lon="-1.66118">
        <ele>20</ele>
        <time>2011-12-27T22:26:21Z</time>
      </trkpt>
      <trkpt lat="47.03373" lon="-1.66125">
        <ele>20</ele>
        <time>2011-12-27T22:26:26Z</time>
      </trkpt>
      <trkpt lat="47.03382" lon="-1.66115">
        <ele>17</ele>
        <time>2011-12-27T22:26:29Z</time>
      </trkpt>
      <trkpt lat="47.03386" lon="-1.66107">
        <ele>17</ele>
        <time>2011-12-27T22:26:31Z</time>
      </trkpt>
      <trkpt lat="47.03385" lon="-1.66092">
        <ele>17</ele>
        <time>2011-12-27T22:26:34Z</time>
      </trkpt>
      <trkpt lat="47.03381" lon="-1.66076">
        <ele>17</ele>
        <time>2011-12-27T22:26:37Z</time>
      </trkpt>
      <trkpt lat="47.0338" lon="-1.66063">
        <ele>17</ele>
        <time>2011-12-27T22:26:39Z</time>
      </trkpt>
      <trkpt lat="47.03386" lon="-1.66042">
        <ele>17</ele>
        <time>2011-12-27T22:26:43Z</time>
      </trkpt>
      <trkpt lat="47.03394" lon="-1.6603">
        <ele>17</ele>
        <time>2011-12-27T22:26:46Z</time>
      </trkpt>
      <trkpt lat="47.034" lon="-1.66008">
        <ele>17</ele>
        <time>2011-12-27T22:26:51Z</time>
      </trkpt>
      <trkpt lat="47.03399" lon="-1.65975">
        <ele>17</ele>
        <time>2011-12-27T22:26:57Z</time>
      </trkpt>
      <trkpt lat="47.03396" lon="-1.65923">
        <ele>18</ele>
        <time>2011-12-27T22:27:06Z</time>
      </trkpt>
      <trkpt lat="47.03385" lon="-1.65875">
        <ele>18</ele>
        <time>2011-12-27T22:27:15Z</time>
      </trkpt>
      <trkpt lat="47.03367" lon="-1.65837">
        <ele>17</ele>
        <time>2011-12-27T22:27:24Z</time>
      </trkpt>
      <trkpt lat="47.03346" lon="-1.65793">
        <ele>17</ele>
        <time>2011-12-27T22:27:34Z</time>
      </trkpt>
      <trkpt lat="47.0333" lon="-1.65757">
        <ele>14</ele>
        <time>2011-12-27T22:27:41Z</time>
      </trkpt>
      <trkpt lat="47.03314" lon="-1.65713">
        <ele>14</ele>
        <time>2011-12-27T22:27:50Z</time>
      </trkpt>
      <trkpt lat="47.03309" lon="-1.65661">
        <ele>13</ele>
        <time>2011-12-27T22:28:00Z</time>
      </trkpt>
      <trkpt lat="47.03311" lon="-1.65627">
        <ele>13</ele>
        <time>2011-12-27T22:28:06Z</time>
      </trkpt>
      <trkpt lat="47.03307" lon="-1.65598">
        <ele>14</ele>
        <time>2011-12-27T22:28:12Z</time>
      </trkpt>
      <trkpt lat="47.033" lon="-1.6557">
        <ele>14</ele>
        <time>2011-12-27T22:28:17Z</time>
      </trkpt>
      <trkpt lat="47.03305" lon="-1.65556">
        <ele>14</ele>
        <time>2011-12-27T22:28:20Z</time>
      </trkpt>
      <trkpt lat="47.03307" lon="-1.65537">
        <ele>13</ele>
        <time>2011-12-27T22:28:23Z</time>
      </trkpt>
      <trkpt lat="47.03305" lon="-1.65507">
        <ele>13</ele>
        <time>2011-12-27T22:28:29Z</time>
      </trkpt>
      <trkpt lat="47.03292" lon="-1.6546">
        <ele>13</ele>
        <time>2011-12-27T22:28:38Z</time>
      </trkpt>
      <trkpt lat="47.03283" lon="-1.65424">
        <ele>14</ele>
        <time>2011-12-27T22:28:45Z</time>
      </trkpt>
      <trkpt lat="47.03275" lon="-1.65397">
        <ele>14</ele>
        <time>2011-12-27T22:28:51Z</time>
      </trkpt>
      <trkpt lat="47.03265" lon="-1.65366">
        <ele>11</ele>
        <time>2011-12-27T22:28:57Z</time>
      </trkpt>
      <trkpt lat="47.03258" lon="-1.65345">
        <ele>11</ele>
        <time>2011-12-27T22:29:01Z</time>
      </trkpt>
      <trkpt lat="47.03269" lon="-1.65329">
        <ele>11</ele>
        <time>2011-12-27T22:29:05Z</time>
      </trkpt>
      <trkpt lat="47.03294" lon="-1.65301">
        <ele>10</ele>
        <time>2011-12-27T22:29:14Z</time>
      </trkpt>
      <trkpt lat="47.03322" lon="-1.65277">
        <ele>10</ele>
        <time>2011-12-27T22:29:22Z</time>
      </trkpt>
      <trkpt lat="47.03347" lon="-1.65262">
        <ele>10</ele>
        <time>2011-12-27T22:29:29Z</time>
      </trkpt>
      <trkpt lat="47.0339" lon="-1.65242">
        <ele>11</ele>
        <time>2011-12-27T22:29:41Z</time>
      </trkpt>
      <trkpt lat="47.03467" lon="-1.65207">
        <ele>10</ele>
        <time>2011-12-27T22:30:03Z</time>
      </trkpt>
      <trkpt lat="47.03509" lon="-1.65187">
        <ele>10</ele>
        <time>2011-12-27T22:30:15Z</time>
      </trkpt>
      <trkpt lat="47.03521" lon="-1.65185">
        <ele>10</ele>
        <time>2011-12-27T22:30:18Z</time>
      </trkpt>
      <trkpt lat="47.03537" lon="-1.65183">
        <ele>10</ele>
        <time>2011-12-27T22:30:22Z</time>
      </trkpt>
      <trkpt lat="47.03555" lon="-1.65161">
        <ele>7</ele>
        <time>2011-12-27T22:30:28Z</time>
      </trkpt>
      <trkpt lat="47.03568" lon="-1.65143">
        <ele>7</ele>
        <time>2011-12-27T22:30:33Z</time>
      </trkpt>
      <trkpt lat="47.03595" lon="-1.65122">
        <ele>8</ele>
        <time>2011-12-27T22:30:41Z</time>
      </trkpt>
      <trkpt lat="47.03605" lon="-1.65112">
        <ele>8</ele>
        <time>2011-12-27T22:30:45Z</time>
      </trkpt>
      <trkpt lat="47.03629" lon="-1.65045">
        <ele>8</ele>
        <time>2011-12-27T22:30:58Z</time>
      </trkpt>
      <trkpt lat="47.03645" lon="-1.65003">
        <ele>8</ele>
        <time>2011-12-27T22:31:07Z</time>
      </trkpt>
      <trkpt lat="47.03654" lon="-1.64985">
        <ele>8</ele>
        <time>2011-12-27T22:31:11Z</time>
      </trkpt>
      <trkpt lat="47.03659" lon="-1.64977">
        <ele>8</ele>
        <time>2011-12-27T22:31:13Z</time>
      </trkpt>
      <trkpt lat="47.03667" lon="-1.6497">
        <ele>8</ele>
        <time>2011-12-27T22:31:16Z</time>
      </trkpt>
      <trkpt lat="47.03673" lon="-1.64976">
        <ele>8</ele>
        <time>2011-12-27T22:31:18Z</time>
      </trkpt>
      <trkpt lat="47.03696" lon="-1.65018">
        <ele>8</ele>
        <time>2011-12-27T22:31:27Z</time>
      </trkpt>
      <trkpt lat="47.03747" lon="-1.65095">
        <ele>9</ele>
        <time>2011-12-27T22:31:47Z</time>
      </trkpt>
      <trkpt lat="47.03782" lon="-1.65139">
        <ele>8</ele>
        <time>2011-12-27T22:31:59Z</time>
      </trkpt>
      <trkpt lat="47.03808" lon="-1.65168">
        <ele>5</ele>
        <time>2011-12-27T22:32:08Z</time>
      </trkpt>
      <trkpt lat="47.03824" lon="-1.65196">
        <ele>5</ele>
        <time>2011-12-27T22:32:15Z</time>
      </trkpt>
      <trkpt lat="47.03826" lon="-1.65206">
        <ele>5</ele>
        <time>2011-12-27T22:32:16Z</time>
      </trkpt>
      <trkpt lat="47.03828" lon="-1.65216">
        <ele>6</ele>
        <time>2011-12-27T22:32:18Z</time>
      </trkpt>
      <trkpt lat="47.0383" lon="-1.65232">
        <ele>6</ele>
        <time>2011-12-27T22:32:21Z</time>
      </trkpt>
      <trkpt lat="47.03832" lon="-1.65242">
        <ele>6</ele>
        <time>2011-12-27T22:32:23Z</time>
      </trkpt>
      <trkpt lat="47.03849" lon="-1.65235">
        <ele>6</ele>
        <time>2011-12-27T22:32:28Z</time>
      </trkpt>
      <trkpt lat="47.03893" lon="-1.65202">
        <ele>5</ele>
        <time>2011-12-27T22:32:41Z</time>
      </trkpt>
      <trkpt lat="47.03922" lon="-1.65182">
        <ele>5</ele>
        <time>2011-12-27T22:32:50Z</time>
      </trkpt>
      <trkpt lat="47.04003" lon="-1.65125">
        <ele>5</ele>
        <time>2011-12-27T22:33:14Z</time>
      </trkpt>
      <trkpt lat="47.04041" lon="-1.65101">
        <ele>5</ele>
        <time>2011-12-27T22:33:25Z</time>
      </trkpt>
      <trkpt lat="47.04134" lon="-1.6504">
        <ele>2</ele>
        <time>2011-12-27T22:33:52Z</time>
      </trkpt>
      <trkpt lat="47.04186" lon="-1.65004">
        <ele>2</ele>
        <time>2011-12-27T22:34:07Z</time>
      </trkpt>
      <trkpt lat="47.04222" lon="-1.64981">
        <ele>2</ele>
        <time>2011-12-27T22:34:18Z</time>
      </trkpt>
      <trkpt lat="47.0426" lon="-1.64957">
        <ele>2</ele>
        <time>2011-12-27T22:34:29Z</time>
      </trkpt>
      <trkpt lat="47.04273" lon="-1.64945">
        <ele>2</ele>
        <time>2011-12-27T22:34:33Z</time>
      </trkpt>
      <trkpt lat="47.04282" lon="-1.64938">
        <ele>2</ele>
        <time>2011-12-27T22:34:36Z</time>
      </trkpt>
      <trkpt lat="47.04294" lon="-1.64928">
        <ele>3</ele>
        <time>2011-12-27T22:34:39Z</time>
      </trkpt>
      <trkpt lat="47.04302" lon="-1.64916">
        <ele>3</ele>
        <time>2011-12-27T22:34:42Z</time>
      </trkpt>
      <trkpt lat="47.04317" lon="-1.64905">
        <ele>3</ele>
        <time>2011-12-27T22:34:47Z</time>
      </trkpt>
      <trkpt lat="47.04326" lon="-1.64894">
        <ele>3</ele>
        <time>2011-12-27T22:34:50Z</time>
      </trkpt>
      <trkpt lat="47.04339" lon="-1.64883">
        <ele>3</ele>
        <time>2011-12-27T22:34:54Z</time>
      </trkpt>
      <trkpt lat="47.04349" lon="-1.64874">
        <ele>3</ele>
        <time>2011-12-27T22:34:57Z</time>
      </trkpt>
      <trkpt lat="47.04356" lon="-1.64865">
        <ele>3</ele>
        <time>2011-12-27T22:35:00Z</time>
      </trkpt>
      <trkpt lat="47.0436" lon="-1.6485">
        <ele>3</ele>
        <time>2011-12-27T22:35:03Z</time>
      </trkpt>
      <trkpt lat="47.04358" lon="-1.64833">
        <ele>3</ele>
        <time>2011-12-27T22:35:06Z</time>
      </trkpt>
      <trkpt lat="47.04353" lon="-1.64824">
        <ele>3</ele>
        <time>2011-12-27T22:35:08Z</time>
      </trkpt>
      <trkpt lat="47.0435" lon="-1.64809">
        <ele>3</ele>
        <time>2011-12-27T22:35:11Z</time>
      </trkpt>
      <trkpt lat="47.04352" lon="-1.64799">
        <ele>3</ele>
        <time>2011-12-27T22:35:13Z</time>
      </trkpt>
      <trkpt lat="47.04357" lon="-1.64788">
        <ele>3</ele>
        <time>2011-12-27T22:35:15Z</time>
      </trkpt>
      <trkpt lat="47.0436" lon="-1.64775">
        <ele>3</ele>
        <time>2011-12-27T22:35:18Z</time>
      </trkpt>
      <trkpt lat="47.04363" lon="-1.64757">
        <ele>3</ele>
        <time>2011-12-27T22:35:21Z</time>
      </trkpt>
      <trkpt lat="47.04368" lon="-1.64755">
        <ele>3</ele>
        <time>2011-12-27T22:35:22Z</time>
      </trkpt>
      <trkpt lat="47.04384" lon="-1.64777">
        <ele>4</ele>
        <time>2011-12-27T22:35:28Z</time>
      </trkpt>
      <trkpt lat="47.044" lon="-1.64801">
        <ele>2</ele>
        <time>2011-12-27T22:35:34Z</time>
      </trkpt>
      <trkpt lat="47.04417" lon="-1.64828">
        <ele>2</ele>
        <time>2011-12-27T22:35:41Z</time>
      </trkpt>
      <trkpt lat="47.04425" lon="-1.64825">
        <ele>2</ele>
        <time>2011-12-27T22:35:43Z</time>
      </trkpt>
      <trkpt lat="47.04444" lon="-1.64805">
        <ele>2</ele>
        <time>2011-12-27T22:35:49Z</time>
      </trkpt>
      <trkpt lat="47.04465" lon="-1.64782">
        <ele>3</ele>
        <time>2011-12-27T22:35:56Z</time>
      </trkpt>
      <trkpt lat="47.04482" lon="-1.64763">
        <ele>3</ele>
        <time>2011-12-27T22:36:02Z</time>
      </trkpt>
      <trkpt lat="47.04527" lon="-1.64713">
        <ele>3</ele>
        <time>2011-12-27T22:36:17Z</time>
      </trkpt>
      <trkpt lat="47.0453" lon="-1.64702">
        <ele>3</ele>
        <time>2011-12-27T22:36:19Z</time>
      </trkpt>
      <trkpt lat="47.04515" lon="-1.64669">
        <ele>3</ele>
        <time>2011-12-27T22:36:26Z</time>
      </trkpt>
      <trkpt lat="47.04509" lon="-1.64651">
        <ele>3</ele>
        <time>2011-12-27T22:36:30Z</time>
      </trkpt>
      <trkpt lat="47.0451" lon="-1.64637">
        <ele>3</ele>
        <time>2011-12-27T22:36:32Z</time>
      </trkpt>
      <trkpt lat="47.0452" lon="-1.64622">
        <ele>3</ele>
        <time>2011-12-27T22:36:36Z</time>
      </trkpt>
      <trkpt lat="47.04532" lon="-1.64603">
        <ele>3</ele>
        <time>2011-12-27T22:36:41Z</time>
      </trkpt>
      <trkpt lat="47.04546" lon="-1.64585">
        <ele>1</ele>
        <time>2011-12-27T22:36:46Z</time>
      </trkpt>
      <trkpt lat="47.04554" lon="-1.64569">
        <ele>1</ele>
        <time>2011-12-27T22:36:49Z</time>
      </trkpt>
      <trkpt lat="47.04562" lon="-1.64562">
        <ele>1</ele>
        <time>2011-12-27T22:36:52Z</time>
      </trkpt>
      <trkpt lat="47.04567" lon="-1.64564">
        <ele>1</ele>
        <time>2011-12-27T22:36:53Z</time>
      </trkpt>
      <trkpt lat="47.04575" lon="-1.64571">
        <ele>1</ele>
        <time>2011-12-27T22:36:56Z</time>
      </trkpt>
      <trkpt lat="47.04584" lon="-1.64563">
        <ele>1</ele>
        <time>2011-12-27T22:36:59Z</time>
      </trkpt>
      <trkpt lat="47.04593" lon="-1.6455">
        <ele>1</ele>
        <time>2011-12-27T22:37:02Z</time>
      </trkpt>
      <trkpt lat="47.04606" lon="-1.64526">
        <ele>2</ele>
        <time>2011-12-27T22:37:08Z</time>
      </trkpt>
      <trkpt lat="47.04614" lon="-1.64513">
        <ele>2</ele>
        <time>2011-12-27T22:37:11Z</time>
      </trkpt>
      <trkpt lat="47.04617" lon="-1.64502">
        <ele>2</ele>
        <time>2011-12-27T22:37:13Z</time>
      </trkpt>
      <trkpt lat="47.04606" lon="-1.64485">
        <ele>2</ele>
        <time>2011-12-27T22:37:17Z</time>
      </trkpt>
      <trkpt lat="47.04593" lon="-1.64464">
        <ele>2</ele>
        <time>2011-12-27T22:37:22Z</time>
      </trkpt>
      <trkpt lat="47.04579" lon="-1.64437">
        <ele>5</ele>
        <time>2011-12-27T22:37:29Z</time>
      </trkpt>
      <trkpt lat="47.0457" lon="-1.64405">
        <ele>5</ele>
        <time>2011-12-27T22:37:35Z</time>
      </trkpt>
      <trkpt lat="47.04563" lon="-1.64373">
        <ele>4</ele>
        <time>2011-12-27T22:37:41Z</time>
      </trkpt>
      <trkpt lat="47.04554" lon="-1.64349">
        <ele>4</ele>
        <time>2011-12-27T22:37:46Z</time>
      </trkpt>
      <trkpt lat="47.04546" lon="-1.64325">
        <ele>4</ele>
        <time>2011-12-27T22:37:51Z</time>
      </trkpt>
      <trkpt lat="47.04532" lon="-1.6428">
        <ele>4</ele>
        <time>2011-12-27T22:38:00Z</time>
      </trkpt>
      <trkpt lat="47.0452" lon="-1.64249">
        <ele>4</ele>
        <time>2011-12-27T22:38:06Z</time>
      </trkpt>
      <trkpt lat="47.04505" lon="-1.64186">
        <ele>5</ele>
        <time>2011-12-27T22:38:18Z</time>
      </trkpt>
      <trkpt lat="47.04502" lon="-1.64141">
        <ele>5</ele>
        <time>2011-12-27T22:38:26Z</time>
      </trkpt>
      <trkpt lat="47.04496" lon="-1.64101">
        <ele>5</ele>
        <time>2011-12-27T22:38:34Z</time>
      </trkpt>
      <trkpt lat="47.0449" lon="-1.64052">
        <ele>5</ele>
        <time>2011-12-27T22:38:43Z</time>
      </trkpt>
      <trkpt lat="47.04485" lon="-1.64007">
        <ele>3</ele>
        <time>2011-12-27T22:38:51Z</time>
      </trkpt>
      <trkpt lat="47.04478" lon="-1.63961">
        <ele>3</ele>
        <time>2011-12-27T22:39:00Z</time>
      </trkpt>
      <trkpt lat="47.04476" lon="-1.63933">
        <ele>4</ele>
        <time>2011-12-27T22:39:05Z</time>
      </trkpt>
      <trkpt lat="47.04472" lon="-1.63913">
        <ele>4</ele>
        <time>2011-12-27T22:39:09Z</time>
      </trkpt>
      <trkpt lat="47.04469" lon="-1.63896">
        <ele>4</ele>
        <time>2011-12-27T22:39:12Z</time>
      </trkpt>
      <trkpt lat="47.04467" lon="-1.63865">
        <ele>4</ele>
        <time>2011-12-27T22:39:18Z</time>
      </trkpt>
      <trkpt lat="47.04467" lon="-1.63825">
        <ele>4</ele>
        <time>2011-12-27T22:39:25Z</time>
      </trkpt>
      <trkpt lat="47.04469" lon="-1.63806">
        <ele>4</ele>
        <time>2011-12-27T22:39:28Z</time>
      </trkpt>
      <trkpt lat="47.04473" lon="-1.6375">
        <ele>4</ele>
        <time>2011-12-27T22:39:39Z</time>
      </trkpt>
      <trkpt lat="47.04471" lon="-1.63718">
        <ele>4</ele>
        <time>2011-12-27T22:39:44Z</time>
      </trkpt>
      <trkpt lat="47.04467" lon="-1.63697">
        <ele>4</ele>
        <time>2011-12-27T22:39:48Z</time>
      </trkpt>
      <trkpt lat="47.04461" lon="-1.63674">
        <ele>4</ele>
        <time>2011-12-27T22:39:53Z</time>
      </trkpt>
      <trkpt lat="47.04459" lon="-1.63659">
        <ele>4</ele>
        <time>2011-12-27T22:39:56Z</time>
      </trkpt>
      <trkpt lat="47.04457" lon="-1.63641">
        <ele>4</ele>
        <time>2011-12-27T22:39:59Z</time>
      </trkpt>
      <trkpt lat="47.04454" lon="-1.63622">
        <ele>3</ele>
        <time>2011-12-27T22:40:03Z</time>
      </trkpt>
      <trkpt lat="47.04453" lon="-1.63605">
        <ele>3</ele>
        <time>2011-12-27T22:40:06Z</time>
      </trkpt>
      <trkpt lat="47.04453" lon="-1.63595">
        <ele>3</ele>
        <time>2011-12-27T22:40:07Z</time>
      </trkpt>
      <trkpt lat="47.04452" lon="-1.63579">
        <ele>3</ele>
        <time>2011-12-27T22:40:10Z</time>
      </trkpt>
      <trkpt lat="47.04444" lon="-1.6357">
        <ele>3</ele>
        <time>2011-12-27T22:40:13Z</time>
      </trkpt>
      <trkpt lat="47.04443" lon="-1.6355">
        <ele>3</ele>
        <time>2011-12-27T22:40:17Z</time>
      </trkpt>
      <trkpt lat="47.04441" lon="-1.63528">
        <ele>2</ele>
        <time>2011-12-27T22:40:21Z</time>
      </trkpt>
      <trkpt lat="47.04441" lon="-1.63517">
        <ele>2</ele>
        <time>2011-12-27T22:40:23Z</time>
      </trkpt>
      <trkpt lat="47.04443" lon="-1.63497">
        <ele>2</ele>
        <time>2011-12-27T22:40:27Z</time>
      </trkpt>
      <trkpt lat="47.04444" lon="-1.63474">
        <ele>2</ele>
        <time>2011-12-27T22:40:31Z</time>
      </trkpt>
      <trkpt lat="47.04441" lon="-1.6345">
        <ele>3</ele>
        <time>2011-12-27T22:40:35Z</time>
      </trkpt>
      <trkpt lat="47.04437" lon="-1.6343">
        <ele>3</ele>
        <time>2011-12-27T22:40:39Z</time>
      </trkpt>
      <trkpt lat="47.04433" lon="-1.63408">
        <ele>3</ele>
        <time>2011-12-27T22:40:43Z</time>
      </trkpt>
      <trkpt lat="47.04427" lon="-1.63375">
        <ele>3</ele>
        <time>2011-12-27T22:40:49Z</time>
      </trkpt>
      <trkpt lat="47.04418" lon="-1.63323">
        <ele>3</ele>
        <time>2011-12-27T22:40:59Z</time>
      </trkpt>
      <trkpt lat="47.04415" lon="-1.63286">
        <ele>2</ele>
        <time>2011-12-27T22:41:06Z</time>
      </trkpt>
      <trkpt lat="47.04413" lon="-1.63189">
        <ele>2</ele>
        <time>2011-12-27T22:41:23Z</time>
      </trkpt>
      <trkpt lat="47.04413" lon="-1.63154">
        <ele>2</ele>
        <time>2011-12-27T22:41:30Z</time>
      </trkpt>
      <trkpt lat="47.04417" lon="-1.63107">
        <ele>3</ele>
        <time>2011-12-27T22:41:38Z</time>
      </trkpt>
      <trkpt lat="47.0442" lon="-1.63059">
        <ele>3</ele>
        <time>2011-12-27T22:41:47Z</time>
      </trkpt>
      <trkpt lat="47.04427" lon="-1.63024">
        <ele>3</ele>
        <time>2011-12-27T22:41:54Z</time>
      </trkpt>
      <trkpt lat="47.04436" lon="-1.62942">
        <ele>5</ele>
        <time>2011-12-27T22:42:09Z</time>
      </trkpt>
      <trkpt lat="47.04424" lon="-1.62934">
        <ele>5</ele>
        <time>2011-12-27T22:42:12Z</time>
      </trkpt>
      <trkpt lat="47.04414" lon="-1.62933">
        <ele>5</ele>
        <time>2011-12-27T22:42:15Z</time>
      </trkpt>
      <trkpt lat="47.04404" lon="-1.62929">
        <ele>5</ele>
        <time>2011-12-27T22:42:18Z</time>
      </trkpt>
      <trkpt lat="47.04385" lon="-1.62926">
        <ele>5</ele>
        <time>2011-12-27T22:42:23Z</time>
      </trkpt>
      <trkpt lat="47.04344" lon="-1.62912">
        <ele>1</ele>
        <time>2011-12-27T22:42:34Z</time>
      </trkpt>
      <trkpt lat="47.04328" lon="-1.62906">
        <ele>1</ele>
        <time>2011-12-27T22:42:39Z</time>
      </trkpt>
      <trkpt lat="47.04311" lon="-1.62923">
        <ele>1</ele>
        <time>2011-12-27T22:42:44Z</time>
      </trkpt>
      <trkpt lat="47.0429" lon="-1.62969">
        <ele>2</ele>
        <time>2011-12-27T22:42:54Z</time>
      </trkpt>
      <trkpt lat="47.04268" lon="-1.63012">
        <ele>2</ele>
        <time>2011-12-27T22:43:04Z</time>
      </trkpt>
      <trkpt lat="47.04253" lon="-1.6306">
        <ele>5</ele>
        <time>2011-12-27T22:43:14Z</time>
      </trkpt>
      <trkpt lat="47.04249" lon="-1.6311">
        <ele>5</ele>
        <time>2011-12-27T22:43:23Z</time>
      </trkpt>
      <trkpt lat="47.04246" lon="-1.6318">
        <ele>4</ele>
        <time>2011-12-27T22:43:36Z</time>
      </trkpt>
      <trkpt lat="47.04261" lon="-1.63299">
        <ele>3</ele>
        <time>2011-12-27T22:43:58Z</time>
      </trkpt>
      <trkpt lat="47.04272" lon="-1.6335">
        <ele>3</ele>
        <time>2011-12-27T22:44:07Z</time>
      </trkpt>
      <trkpt lat="47.04292" lon="-1.63468">
        <ele>2</ele>
        <time>2011-12-27T22:44:29Z</time>
      </trkpt>
      <trkpt lat="47.043" lon="-1.63532">
        <ele>3</ele>
        <time>2011-12-27T22:44:41Z</time>
      </trkpt>
      <trkpt lat="47.043" lon="-1.63579">
        <ele>3</ele>
        <time>2011-12-27T22:44:50Z</time>
      </trkpt>
      <trkpt lat="47.04302" lon="-1.63673">
        <ele>3</ele>
        <time>2011-12-27T22:45:07Z</time>
      </trkpt>
      <trkpt lat="47.04308" lon="-1.63716">
        <ele>4</ele>
        <time>2011-12-27T22:45:15Z</time>
      </trkpt>
      <trkpt lat="47.04316" lon="-1.63783">
        <ele>4</ele>
        <time>2011-12-27T22:45:27Z</time>
      </trkpt>
      <trkpt lat="47.0433" lon="-1.63859">
        <ele>4</ele>
        <time>2011-12-27T22:45:42Z</time>
      </trkpt>
      <trkpt lat="47.04342" lon="-1.63931">
        <ele>3</ele>
        <time>2011-12-27T22:45:55Z</time>
      </trkpt>
      <trkpt lat="47.04355" lon="-1.63966">
        <ele>6</ele>
        <time>2011-12-27T22:46:02Z</time>
      </trkpt>
      <trkpt lat="47.04346" lon="-1.63972">
        <ele>6</ele>
        <time>2011-12-27T22:46:05Z</time>
      </trkpt>
      <trkpt lat="47.04329" lon="-1.6398">
        <ele>6</ele>
        <time>2011-12-27T22:46:09Z</time>
      </trkpt>
      <trkpt lat="47.04295" lon="-1.63995">
        <ele>6</ele>
        <time>2011-12-27T22:46:19Z</time>
      </trkpt>
      <trkpt lat="47.04283" lon="-1.64002">
        <ele>5</ele>
        <time>2011-12-27T22:46:22Z</time>
      </trkpt>
      <trkpt lat="47.04264" lon="-1.64007">
        <ele>5</ele>
        <time>2011-12-27T22:46:28Z</time>
      </trkpt>
      <trkpt lat="47.04247" lon="-1.64012">
        <ele>5</ele>
        <time>2011-12-27T22:46:32Z</time>
      </trkpt>
      <trkpt lat="47.04231" lon="-1.64016">
        <ele>5</ele>
        <time>2011-12-27T22:46:36Z</time>
      </trkpt>
      <trkpt lat="47.04216" lon="-1.64019">
        <ele>5</ele>
        <time>2011-12-27T22:46:41Z</time>
      </trkpt>
      <trkpt lat="47.04209" lon="-1.64026">
        <ele>5</ele>
        <time>2011-12-27T22:46:43Z</time>
      </trkpt>
      <trkpt lat="47.042" lon="-1.64027">
        <ele>6</ele>
        <time>2011-12-27T22:46:45Z</time>
      </trkpt>
      <trkpt lat="47.04191" lon="-1.6403">
        <ele>6</ele>
        <time>2011-12-27T22:46:47Z</time>
      </trkpt>
      <trkpt lat="47.04183" lon="-1.64027">
        <ele>6</ele>
        <time>2011-12-27T22:46:50Z</time>
      </trkpt>
    </trkseg>
  </trk>
</gpx>